<?xml version="1.0" encoding="UTF-8" standalone="no" ?>
<gpx xmlns="http://www.topografix.com/GPX/1/1" xmlns:xsi="http://www.w3.org/2001/XMLSchema-instance" xsi:schemaLocation="http://www.topografix.com/GPX/1/1 http://www.topografix.com/GPX/1/1/gpx.xsd" version="1.1" creator="VisuGPX - https://www.visugpx.com">
  <metadata>
    <name>les molieres chevreuse</name>
    <desc><![CDATA[AVF Antony JP Brethes les molieres chevreuse]]></desc>
  </metadata>
  <trk>
    <name><![CDATA[avf animée les moirées chevreuse]]></name>
    <cmt><![CDATA[23 janv. 2015 09:43:56]]></cmt>
    <trkseg>
      <trkpt lat="48.67291" lon="2.06808">
        <ele>162</ele>
        <time>2015-01-23T08:43:57Z</time>
      </trkpt>
      <trkpt lat="48.6729" lon="2.06813">
        <ele>167</ele>
        <time>2015-01-23T08:45:24Z</time>
      </trkpt>
      <trkpt lat="48.67291" lon="2.06817">
        <ele>167</ele>
        <time>2015-01-23T08:45:57Z</time>
      </trkpt>
      <trkpt lat="48.67285" lon="2.0682">
        <ele>166</ele>
        <time>2015-01-23T08:46:09Z</time>
      </trkpt>
      <trkpt lat="48.67283" lon="2.06824">
        <ele>166</ele>
        <time>2015-01-23T08:48:06Z</time>
      </trkpt>
      <trkpt lat="48.67286" lon="2.06829">
        <ele>166</ele>
        <time>2015-01-23T08:48:20Z</time>
      </trkpt>
      <trkpt lat="48.67279" lon="2.06829">
        <ele>165</ele>
        <time>2015-01-23T08:50:06Z</time>
      </trkpt>
      <trkpt lat="48.67275" lon="2.06821">
        <ele>165</ele>
        <time>2015-01-23T08:50:10Z</time>
      </trkpt>
      <trkpt lat="48.6725" lon="2.0678">
        <ele>164</ele>
        <time>2015-01-23T08:50:43Z</time>
      </trkpt>
      <trkpt lat="48.6725" lon="2.06775">
        <ele>164</ele>
        <time>2015-01-23T08:50:54Z</time>
      </trkpt>
      <trkpt lat="48.67248" lon="2.06773">
        <ele>164</ele>
        <time>2015-01-23T08:51:00Z</time>
      </trkpt>
      <trkpt lat="48.67245" lon="2.06768">
        <ele>164</ele>
        <time>2015-01-23T08:51:08Z</time>
      </trkpt>
      <trkpt lat="48.67244" lon="2.06761">
        <ele>164</ele>
        <time>2015-01-23T08:51:15Z</time>
      </trkpt>
      <trkpt lat="48.67242" lon="2.06759">
        <ele>164</ele>
        <time>2015-01-23T08:51:42Z</time>
      </trkpt>
      <trkpt lat="48.67235" lon="2.06754">
        <ele>163</ele>
        <time>2015-01-23T08:52:16Z</time>
      </trkpt>
      <trkpt lat="48.67225" lon="2.06725">
        <ele>162</ele>
        <time>2015-01-23T08:52:37Z</time>
      </trkpt>
      <trkpt lat="48.6722" lon="2.06694">
        <ele>157</ele>
        <time>2015-01-23T08:52:53Z</time>
      </trkpt>
      <trkpt lat="48.67204" lon="2.06636">
        <ele>155</ele>
        <time>2015-01-23T08:53:24Z</time>
      </trkpt>
      <trkpt lat="48.67194" lon="2.0662">
        <ele>154</ele>
        <time>2015-01-23T08:53:35Z</time>
      </trkpt>
      <trkpt lat="48.67186" lon="2.06609">
        <ele>154</ele>
        <time>2015-01-23T08:53:42Z</time>
      </trkpt>
      <trkpt lat="48.67154" lon="2.06559">
        <ele>152</ele>
        <time>2015-01-23T08:54:15Z</time>
      </trkpt>
      <trkpt lat="48.6715" lon="2.06556">
        <ele>152</ele>
        <time>2015-01-23T08:54:19Z</time>
      </trkpt>
      <trkpt lat="48.67128" lon="2.06519">
        <ele>150</ele>
        <time>2015-01-23T08:54:44Z</time>
      </trkpt>
      <trkpt lat="48.67127" lon="2.06511">
        <ele>150</ele>
        <time>2015-01-23T08:54:50Z</time>
      </trkpt>
      <trkpt lat="48.67132" lon="2.06504">
        <ele>150</ele>
        <time>2015-01-23T08:54:53Z</time>
      </trkpt>
      <trkpt lat="48.67154" lon="2.06466">
        <ele>148</ele>
        <time>2015-01-23T08:55:23Z</time>
      </trkpt>
      <trkpt lat="48.67168" lon="2.06435">
        <ele>145</ele>
        <time>2015-01-23T08:55:44Z</time>
      </trkpt>
      <trkpt lat="48.67173" lon="2.06433">
        <ele>144</ele>
        <time>2015-01-23T08:55:51Z</time>
      </trkpt>
      <trkpt lat="48.67218" lon="2.0644">
        <ele>141</ele>
        <time>2015-01-23T08:56:23Z</time>
      </trkpt>
      <trkpt lat="48.67256" lon="2.06443">
        <ele>139</ele>
        <time>2015-01-23T08:56:55Z</time>
      </trkpt>
      <trkpt lat="48.67261" lon="2.06447">
        <ele>139</ele>
        <time>2015-01-23T08:56:59Z</time>
      </trkpt>
      <trkpt lat="48.67279" lon="2.06447">
        <ele>137</ele>
        <time>2015-01-23T08:57:16Z</time>
      </trkpt>
      <trkpt lat="48.67284" lon="2.06444">
        <ele>137</ele>
        <time>2015-01-23T08:57:19Z</time>
      </trkpt>
      <trkpt lat="48.67304" lon="2.06443">
        <ele>136</ele>
        <time>2015-01-23T08:57:33Z</time>
      </trkpt>
      <trkpt lat="48.6733" lon="2.06448">
        <ele>134</ele>
        <time>2015-01-23T08:57:52Z</time>
      </trkpt>
      <trkpt lat="48.67334" lon="2.06454">
        <ele>134</ele>
        <time>2015-01-23T08:57:57Z</time>
      </trkpt>
      <trkpt lat="48.67338" lon="2.06456">
        <ele>134</ele>
        <time>2015-01-23T08:58:00Z</time>
      </trkpt>
      <trkpt lat="48.67346" lon="2.06455">
        <ele>133</ele>
        <time>2015-01-23T08:58:05Z</time>
      </trkpt>
      <trkpt lat="48.67348" lon="2.06463">
        <ele>133</ele>
        <time>2015-01-23T08:58:09Z</time>
      </trkpt>
      <trkpt lat="48.67361" lon="2.06474">
        <ele>132</ele>
        <time>2015-01-23T08:58:20Z</time>
      </trkpt>
      <trkpt lat="48.67394" lon="2.06488">
        <ele>131</ele>
        <time>2015-01-23T08:58:52Z</time>
      </trkpt>
      <trkpt lat="48.6741" lon="2.065">
        <ele>130</ele>
        <time>2015-01-23T08:59:03Z</time>
      </trkpt>
      <trkpt lat="48.67416" lon="2.06504">
        <ele>130</ele>
        <time>2015-01-23T08:59:06Z</time>
      </trkpt>
      <trkpt lat="48.67418" lon="2.06512">
        <ele>130</ele>
        <time>2015-01-23T08:59:09Z</time>
      </trkpt>
      <trkpt lat="48.67422" lon="2.06515">
        <ele>129</ele>
        <time>2015-01-23T08:59:13Z</time>
      </trkpt>
      <trkpt lat="48.67443" lon="2.06524">
        <ele>129</ele>
        <time>2015-01-23T08:59:30Z</time>
      </trkpt>
      <trkpt lat="48.67448" lon="2.06522">
        <ele>128</ele>
        <time>2015-01-23T08:59:34Z</time>
      </trkpt>
      <trkpt lat="48.67488" lon="2.06541">
        <ele>125</ele>
        <time>2015-01-23T09:00:06Z</time>
      </trkpt>
      <trkpt lat="48.67515" lon="2.0659">
        <ele>123</ele>
        <time>2015-01-23T09:00:37Z</time>
      </trkpt>
      <trkpt lat="48.67523" lon="2.06599">
        <ele>123</ele>
        <time>2015-01-23T09:00:46Z</time>
      </trkpt>
      <trkpt lat="48.67568" lon="2.06627">
        <ele>120</ele>
        <time>2015-01-23T09:01:24Z</time>
      </trkpt>
      <trkpt lat="48.67589" lon="2.06657">
        <ele>120</ele>
        <time>2015-01-23T09:01:46Z</time>
      </trkpt>
      <trkpt lat="48.67606" lon="2.06669">
        <ele>119</ele>
        <time>2015-01-23T09:02:02Z</time>
      </trkpt>
      <trkpt lat="48.6761" lon="2.06682">
        <ele>119</ele>
        <time>2015-01-23T09:02:10Z</time>
      </trkpt>
      <trkpt lat="48.6762" lon="2.06741">
        <ele>119</ele>
        <time>2015-01-23T09:02:44Z</time>
      </trkpt>
      <trkpt lat="48.67643" lon="2.06789">
        <ele>119</ele>
        <time>2015-01-23T09:03:15Z</time>
      </trkpt>
      <trkpt lat="48.6768" lon="2.0683">
        <ele>117</ele>
        <time>2015-01-23T09:03:50Z</time>
      </trkpt>
      <trkpt lat="48.67721" lon="2.06867">
        <ele>114</ele>
        <time>2015-01-23T09:04:29Z</time>
      </trkpt>
      <trkpt lat="48.67747" lon="2.06885">
        <ele>113</ele>
        <time>2015-01-23T09:04:48Z</time>
      </trkpt>
      <trkpt lat="48.67779" lon="2.06917">
        <ele>110</ele>
        <time>2015-01-23T09:05:20Z</time>
      </trkpt>
      <trkpt lat="48.67812" lon="2.0693">
        <ele>109</ele>
        <time>2015-01-23T09:05:44Z</time>
      </trkpt>
      <trkpt lat="48.67843" lon="2.06968">
        <ele>107</ele>
        <time>2015-01-23T09:06:22Z</time>
      </trkpt>
      <trkpt lat="48.67885" lon="2.06999">
        <ele>106</ele>
        <time>2015-01-23T09:07:00Z</time>
      </trkpt>
      <trkpt lat="48.67934" lon="2.07002">
        <ele>105</ele>
        <time>2015-01-23T09:07:37Z</time>
      </trkpt>
      <trkpt lat="48.67971" lon="2.06997">
        <ele>105</ele>
        <time>2015-01-23T09:08:09Z</time>
      </trkpt>
      <trkpt lat="48.68" lon="2.06993">
        <ele>103</ele>
        <time>2015-01-23T09:08:35Z</time>
      </trkpt>
      <trkpt lat="48.68009" lon="2.06991">
        <ele>107</ele>
        <time>2015-01-23T09:08:43Z</time>
      </trkpt>
      <trkpt lat="48.68019" lon="2.06991">
        <ele>104</ele>
        <time>2015-01-23T09:08:51Z</time>
      </trkpt>
      <trkpt lat="48.68028" lon="2.0699">
        <ele>104</ele>
        <time>2015-01-23T09:08:57Z</time>
      </trkpt>
      <trkpt lat="48.68058" lon="2.06989">
        <ele>127</ele>
        <time>2015-01-23T09:09:19Z</time>
      </trkpt>
      <trkpt lat="48.68073" lon="2.06975">
        <ele>132</ele>
        <time>2015-01-23T09:09:36Z</time>
      </trkpt>
      <trkpt lat="48.68091" lon="2.06963">
        <ele>133</ele>
        <time>2015-01-23T09:09:53Z</time>
      </trkpt>
      <trkpt lat="48.68121" lon="2.06931">
        <ele>133</ele>
        <time>2015-01-23T09:10:22Z</time>
      </trkpt>
      <trkpt lat="48.68129" lon="2.06923">
        <ele>131</ele>
        <time>2015-01-23T09:10:29Z</time>
      </trkpt>
      <trkpt lat="48.68161" lon="2.0689">
        <ele>103</ele>
        <time>2015-01-23T09:10:59Z</time>
      </trkpt>
      <trkpt lat="48.68179" lon="2.06877">
        <ele>100</ele>
        <time>2015-01-23T09:11:17Z</time>
      </trkpt>
      <trkpt lat="48.68213" lon="2.06855">
        <ele>98</ele>
        <time>2015-01-23T09:11:48Z</time>
      </trkpt>
      <trkpt lat="48.68251" lon="2.06841">
        <ele>98</ele>
        <time>2015-01-23T09:12:18Z</time>
      </trkpt>
      <trkpt lat="48.68287" lon="2.06814">
        <ele>98</ele>
        <time>2015-01-23T09:12:50Z</time>
      </trkpt>
      <trkpt lat="48.68296" lon="2.06806">
        <ele>98</ele>
        <time>2015-01-23T09:12:58Z</time>
      </trkpt>
      <trkpt lat="48.68303" lon="2.06795">
        <ele>98</ele>
        <time>2015-01-23T09:13:07Z</time>
      </trkpt>
      <trkpt lat="48.683" lon="2.06788">
        <ele>97</ele>
        <time>2015-01-23T09:13:11Z</time>
      </trkpt>
      <trkpt lat="48.6829" lon="2.06786">
        <ele>97</ele>
        <time>2015-01-23T09:13:18Z</time>
      </trkpt>
      <trkpt lat="48.68261" lon="2.06746">
        <ele>99</ele>
        <time>2015-01-23T09:13:51Z</time>
      </trkpt>
      <trkpt lat="48.68248" lon="2.06719">
        <ele>101</ele>
        <time>2015-01-23T09:14:09Z</time>
      </trkpt>
      <trkpt lat="48.68244" lon="2.06656">
        <ele>103</ele>
        <time>2015-01-23T09:14:42Z</time>
      </trkpt>
      <trkpt lat="48.68229" lon="2.066">
        <ele>107</ele>
        <time>2015-01-23T09:15:16Z</time>
      </trkpt>
      <trkpt lat="48.68228" lon="2.06587">
        <ele>107</ele>
        <time>2015-01-23T09:15:23Z</time>
      </trkpt>
      <trkpt lat="48.68229" lon="2.0658">
        <ele>108</ele>
        <time>2015-01-23T09:15:28Z</time>
      </trkpt>
      <trkpt lat="48.68224" lon="2.06556">
        <ele>109</ele>
        <time>2015-01-23T09:15:43Z</time>
      </trkpt>
      <trkpt lat="48.68227" lon="2.0655">
        <ele>110</ele>
        <time>2015-01-23T09:15:48Z</time>
      </trkpt>
      <trkpt lat="48.6824" lon="2.06538">
        <ele>112</ele>
        <time>2015-01-23T09:16:02Z</time>
      </trkpt>
      <trkpt lat="48.68269" lon="2.06493">
        <ele>112</ele>
        <time>2015-01-23T09:16:37Z</time>
      </trkpt>
      <trkpt lat="48.68274" lon="2.06486">
        <ele>112</ele>
        <time>2015-01-23T09:16:41Z</time>
      </trkpt>
      <trkpt lat="48.68276" lon="2.06476">
        <ele>112</ele>
        <time>2015-01-23T09:16:47Z</time>
      </trkpt>
      <trkpt lat="48.68278" lon="2.06473">
        <ele>111</ele>
        <time>2015-01-23T09:16:52Z</time>
      </trkpt>
      <trkpt lat="48.68307" lon="2.06431">
        <ele>106</ele>
        <time>2015-01-23T09:17:22Z</time>
      </trkpt>
      <trkpt lat="48.68331" lon="2.06391">
        <ele>102</ele>
        <time>2015-01-23T09:17:53Z</time>
      </trkpt>
      <trkpt lat="48.68341" lon="2.06385">
        <ele>102</ele>
        <time>2015-01-23T09:18:01Z</time>
      </trkpt>
      <trkpt lat="48.68344" lon="2.06378">
        <ele>102</ele>
        <time>2015-01-23T09:18:05Z</time>
      </trkpt>
      <trkpt lat="48.68343" lon="2.06363">
        <ele>101</ele>
        <time>2015-01-23T09:18:14Z</time>
      </trkpt>
      <trkpt lat="48.68337" lon="2.06303">
        <ele>101</ele>
        <time>2015-01-23T09:18:45Z</time>
      </trkpt>
      <trkpt lat="48.68334" lon="2.06288">
        <ele>101</ele>
        <time>2015-01-23T09:18:53Z</time>
      </trkpt>
      <trkpt lat="48.68334" lon="2.0628">
        <ele>102</ele>
        <time>2015-01-23T09:18:57Z</time>
      </trkpt>
      <trkpt lat="48.68335" lon="2.06272">
        <ele>101</ele>
        <time>2015-01-23T09:19:01Z</time>
      </trkpt>
      <trkpt lat="48.68338" lon="2.06266">
        <ele>101</ele>
        <time>2015-01-23T09:19:05Z</time>
      </trkpt>
      <trkpt lat="48.68342" lon="2.06264">
        <ele>101</ele>
        <time>2015-01-23T09:19:09Z</time>
      </trkpt>
      <trkpt lat="48.68344" lon="2.0626">
        <ele>101</ele>
        <time>2015-01-23T09:19:15Z</time>
      </trkpt>
      <trkpt lat="48.68348" lon="2.06258">
        <ele>101</ele>
        <time>2015-01-23T09:19:32Z</time>
      </trkpt>
      <trkpt lat="48.68381" lon="2.06236">
        <ele>100</ele>
        <time>2015-01-23T09:20:03Z</time>
      </trkpt>
      <trkpt lat="48.68401" lon="2.06231">
        <ele>100</ele>
        <time>2015-01-23T09:20:20Z</time>
      </trkpt>
      <trkpt lat="48.68415" lon="2.06237">
        <ele>101</ele>
        <time>2015-01-23T09:20:29Z</time>
      </trkpt>
      <trkpt lat="48.6845" lon="2.06263">
        <ele>106</ele>
        <time>2015-01-23T09:21:04Z</time>
      </trkpt>
      <trkpt lat="48.68453" lon="2.06262">
        <ele>107</ele>
        <time>2015-01-23T09:21:10Z</time>
      </trkpt>
      <trkpt lat="48.68457" lon="2.06265">
        <ele>107</ele>
        <time>2015-01-23T09:21:14Z</time>
      </trkpt>
      <trkpt lat="48.68462" lon="2.06269">
        <ele>108</ele>
        <time>2015-01-23T09:21:20Z</time>
      </trkpt>
      <trkpt lat="48.68485" lon="2.06283">
        <ele>111</ele>
        <time>2015-01-23T09:21:41Z</time>
      </trkpt>
      <trkpt lat="48.68489" lon="2.0628">
        <ele>112</ele>
        <time>2015-01-23T09:21:50Z</time>
      </trkpt>
      <trkpt lat="48.6849" lon="2.06275">
        <ele>113</ele>
        <time>2015-01-23T09:21:58Z</time>
      </trkpt>
      <trkpt lat="48.68486" lon="2.0627">
        <ele>113</ele>
        <time>2015-01-23T09:22:07Z</time>
      </trkpt>
      <trkpt lat="48.68482" lon="2.06267">
        <ele>114</ele>
        <time>2015-01-23T09:22:13Z</time>
      </trkpt>
      <trkpt lat="48.6848" lon="2.06263">
        <ele>114</ele>
        <time>2015-01-23T09:22:15Z</time>
      </trkpt>
      <trkpt lat="48.68478" lon="2.06256">
        <ele>115</ele>
        <time>2015-01-23T09:22:20Z</time>
      </trkpt>
      <trkpt lat="48.68476" lon="2.06242">
        <ele>115</ele>
        <time>2015-01-23T09:22:28Z</time>
      </trkpt>
      <trkpt lat="48.68477" lon="2.06236">
        <ele>116</ele>
        <time>2015-01-23T09:22:33Z</time>
      </trkpt>
      <trkpt lat="48.68471" lon="2.06204">
        <ele>117</ele>
        <time>2015-01-23T09:22:50Z</time>
      </trkpt>
      <trkpt lat="48.68443" lon="2.06159">
        <ele>121</ele>
        <time>2015-01-23T09:23:26Z</time>
      </trkpt>
      <trkpt lat="48.68409" lon="2.06112">
        <ele>124</ele>
        <time>2015-01-23T09:23:58Z</time>
      </trkpt>
      <trkpt lat="48.6839" lon="2.06077">
        <ele>126</ele>
        <time>2015-01-23T09:24:24Z</time>
      </trkpt>
      <trkpt lat="48.68392" lon="2.06028">
        <ele>126</ele>
        <time>2015-01-23T09:24:59Z</time>
      </trkpt>
      <trkpt lat="48.68389" lon="2.06028">
        <ele>126</ele>
        <time>2015-01-23T09:25:26Z</time>
      </trkpt>
      <trkpt lat="48.68384" lon="2.06024">
        <ele>125</ele>
        <time>2015-01-23T09:27:57Z</time>
      </trkpt>
      <trkpt lat="48.68364" lon="2.05991">
        <ele>125</ele>
        <time>2015-01-23T09:28:28Z</time>
      </trkpt>
      <trkpt lat="48.68344" lon="2.05945">
        <ele>126</ele>
        <time>2015-01-23T09:28:59Z</time>
      </trkpt>
      <trkpt lat="48.68334" lon="2.05918">
        <ele>126</ele>
        <time>2015-01-23T09:29:16Z</time>
      </trkpt>
      <trkpt lat="48.68331" lon="2.05912">
        <ele>127</ele>
        <time>2015-01-23T09:29:20Z</time>
      </trkpt>
      <trkpt lat="48.68322" lon="2.05877">
        <ele>127</ele>
        <time>2015-01-23T09:29:41Z</time>
      </trkpt>
      <trkpt lat="48.68319" lon="2.05871">
        <ele>128</ele>
        <time>2015-01-23T09:29:46Z</time>
      </trkpt>
      <trkpt lat="48.68295" lon="2.05818">
        <ele>128</ele>
        <time>2015-01-23T09:30:20Z</time>
      </trkpt>
      <trkpt lat="48.68292" lon="2.05812">
        <ele>129</ele>
        <time>2015-01-23T09:30:25Z</time>
      </trkpt>
      <trkpt lat="48.6828" lon="2.05779">
        <ele>129</ele>
        <time>2015-01-23T09:30:45Z</time>
      </trkpt>
      <trkpt lat="48.68279" lon="2.05772">
        <ele>129</ele>
        <time>2015-01-23T09:30:50Z</time>
      </trkpt>
      <trkpt lat="48.68278" lon="2.05764">
        <ele>129</ele>
        <time>2015-01-23T09:30:54Z</time>
      </trkpt>
      <trkpt lat="48.68253" lon="2.05702">
        <ele>131</ele>
        <time>2015-01-23T09:31:28Z</time>
      </trkpt>
      <trkpt lat="48.68232" lon="2.05649">
        <ele>132</ele>
        <time>2015-01-23T09:32:01Z</time>
      </trkpt>
      <trkpt lat="48.68208" lon="2.05598">
        <ele>134</ele>
        <time>2015-01-23T09:32:34Z</time>
      </trkpt>
      <trkpt lat="48.68176" lon="2.05555">
        <ele>135</ele>
        <time>2015-01-23T09:33:09Z</time>
      </trkpt>
      <trkpt lat="48.68146" lon="2.05512">
        <ele>136</ele>
        <time>2015-01-23T09:33:41Z</time>
      </trkpt>
      <trkpt lat="48.68114" lon="2.05482">
        <ele>137</ele>
        <time>2015-01-23T09:34:13Z</time>
      </trkpt>
      <trkpt lat="48.68075" lon="2.05457">
        <ele>138</ele>
        <time>2015-01-23T09:34:45Z</time>
      </trkpt>
      <trkpt lat="48.68039" lon="2.05431">
        <ele>139</ele>
        <time>2015-01-23T09:35:17Z</time>
      </trkpt>
      <trkpt lat="48.68001" lon="2.05407">
        <ele>140</ele>
        <time>2015-01-23T09:35:49Z</time>
      </trkpt>
      <trkpt lat="48.6797" lon="2.05382">
        <ele>142</ele>
        <time>2015-01-23T09:36:19Z</time>
      </trkpt>
      <trkpt lat="48.67933" lon="2.05351">
        <ele>143</ele>
        <time>2015-01-23T09:36:51Z</time>
      </trkpt>
      <trkpt lat="48.67915" lon="2.05338">
        <ele>143</ele>
        <time>2015-01-23T09:37:03Z</time>
      </trkpt>
      <trkpt lat="48.67896" lon="2.0533">
        <ele>144</ele>
        <time>2015-01-23T09:37:24Z</time>
      </trkpt>
      <trkpt lat="48.67862" lon="2.05298">
        <ele>145</ele>
        <time>2015-01-23T09:37:54Z</time>
      </trkpt>
      <trkpt lat="48.6783" lon="2.05276">
        <ele>146</ele>
        <time>2015-01-23T09:38:24Z</time>
      </trkpt>
      <trkpt lat="48.67814" lon="2.05268">
        <ele>147</ele>
        <time>2015-01-23T09:38:37Z</time>
      </trkpt>
      <trkpt lat="48.67805" lon="2.0526">
        <ele>146</ele>
        <time>2015-01-23T09:38:43Z</time>
      </trkpt>
      <trkpt lat="48.678" lon="2.0526">
        <ele>146</ele>
        <time>2015-01-23T09:38:47Z</time>
      </trkpt>
      <trkpt lat="48.67771" lon="2.0524">
        <ele>147</ele>
        <time>2015-01-23T09:39:18Z</time>
      </trkpt>
      <trkpt lat="48.67767" lon="2.05241">
        <ele>147</ele>
        <time>2015-01-23T09:39:43Z</time>
      </trkpt>
      <trkpt lat="48.67767" lon="2.05237">
        <ele>147</ele>
        <time>2015-01-23T09:41:54Z</time>
      </trkpt>
      <trkpt lat="48.67763" lon="2.05237">
        <ele>147</ele>
        <time>2015-01-23T09:42:45Z</time>
      </trkpt>
      <trkpt lat="48.67761" lon="2.05238">
        <ele>148</ele>
        <time>2015-01-23T09:45:06Z</time>
      </trkpt>
      <trkpt lat="48.67721" lon="2.05229">
        <ele>151</ele>
        <time>2015-01-23T09:45:39Z</time>
      </trkpt>
      <trkpt lat="48.67724" lon="2.05222">
        <ele>151</ele>
        <time>2015-01-23T09:45:46Z</time>
      </trkpt>
      <trkpt lat="48.67724" lon="2.05214">
        <ele>151</ele>
        <time>2015-01-23T09:45:50Z</time>
      </trkpt>
      <trkpt lat="48.67722" lon="2.05208">
        <ele>148</ele>
        <time>2015-01-23T09:46:06Z</time>
      </trkpt>
      <trkpt lat="48.67698" lon="2.05181">
        <ele>138</ele>
        <time>2015-01-23T09:46:35Z</time>
      </trkpt>
      <trkpt lat="48.67696" lon="2.05175">
        <ele>138</ele>
        <time>2015-01-23T09:46:40Z</time>
      </trkpt>
      <trkpt lat="48.67695" lon="2.05136">
        <ele>139</ele>
        <time>2015-01-23T09:47:08Z</time>
      </trkpt>
      <trkpt lat="48.67696" lon="2.05098">
        <ele>142</ele>
        <time>2015-01-23T09:47:41Z</time>
      </trkpt>
      <trkpt lat="48.67696" lon="2.05044">
        <ele>146</ele>
        <time>2015-01-23T09:48:13Z</time>
      </trkpt>
      <trkpt lat="48.67699" lon="2.04992">
        <ele>150</ele>
        <time>2015-01-23T09:48:45Z</time>
      </trkpt>
      <trkpt lat="48.67706" lon="2.04939">
        <ele>153</ele>
        <time>2015-01-23T09:49:19Z</time>
      </trkpt>
      <trkpt lat="48.677" lon="2.04894">
        <ele>157</ele>
        <time>2015-01-23T09:49:49Z</time>
      </trkpt>
      <trkpt lat="48.67696" lon="2.04888">
        <ele>158</ele>
        <time>2015-01-23T09:49:54Z</time>
      </trkpt>
      <trkpt lat="48.67681" lon="2.04841">
        <ele>160</ele>
        <time>2015-01-23T09:50:25Z</time>
      </trkpt>
      <trkpt lat="48.67678" lon="2.04822">
        <ele>162</ele>
        <time>2015-01-23T09:50:42Z</time>
      </trkpt>
      <trkpt lat="48.67679" lon="2.04807">
        <ele>162</ele>
        <time>2015-01-23T09:51:11Z</time>
      </trkpt>
      <trkpt lat="48.67675" lon="2.04803">
        <ele>162</ele>
        <time>2015-01-23T09:51:18Z</time>
      </trkpt>
      <trkpt lat="48.67654" lon="2.04761">
        <ele>163</ele>
        <time>2015-01-23T09:51:49Z</time>
      </trkpt>
      <trkpt lat="48.67647" lon="2.0474">
        <ele>162</ele>
        <time>2015-01-23T09:52:02Z</time>
      </trkpt>
      <trkpt lat="48.67649" lon="2.04678">
        <ele>163</ele>
        <time>2015-01-23T09:52:33Z</time>
      </trkpt>
      <trkpt lat="48.67649" lon="2.04671">
        <ele>163</ele>
        <time>2015-01-23T09:52:37Z</time>
      </trkpt>
      <trkpt lat="48.67642" lon="2.0465">
        <ele>162</ele>
        <time>2015-01-23T09:52:51Z</time>
      </trkpt>
      <trkpt lat="48.67607" lon="2.04622">
        <ele>163</ele>
        <time>2015-01-23T09:53:23Z</time>
      </trkpt>
      <trkpt lat="48.67598" lon="2.04618">
        <ele>163</ele>
        <time>2015-01-23T09:53:32Z</time>
      </trkpt>
      <trkpt lat="48.67561" lon="2.04603">
        <ele>164</ele>
        <time>2015-01-23T09:54:04Z</time>
      </trkpt>
      <trkpt lat="48.67527" lon="2.04596">
        <ele>165</ele>
        <time>2015-01-23T09:54:34Z</time>
      </trkpt>
      <trkpt lat="48.67488" lon="2.04586">
        <ele>166</ele>
        <time>2015-01-23T09:55:09Z</time>
      </trkpt>
      <trkpt lat="48.67481" lon="2.04584">
        <ele>166</ele>
        <time>2015-01-23T09:55:13Z</time>
      </trkpt>
      <trkpt lat="48.67472" lon="2.04582">
        <ele>166</ele>
        <time>2015-01-23T09:55:21Z</time>
      </trkpt>
      <trkpt lat="48.67437" lon="2.04568">
        <ele>167</ele>
        <time>2015-01-23T09:55:52Z</time>
      </trkpt>
      <trkpt lat="48.67396" lon="2.04558">
        <ele>169</ele>
        <time>2015-01-23T09:56:25Z</time>
      </trkpt>
      <trkpt lat="48.67382" lon="2.04553">
        <ele>169</ele>
        <time>2015-01-23T09:56:38Z</time>
      </trkpt>
      <trkpt lat="48.67378" lon="2.04548">
        <ele>169</ele>
        <time>2015-01-23T09:56:42Z</time>
      </trkpt>
      <trkpt lat="48.67364" lon="2.0454">
        <ele>169</ele>
        <time>2015-01-23T09:56:54Z</time>
      </trkpt>
      <trkpt lat="48.67331" lon="2.04534">
        <ele>169</ele>
        <time>2015-01-23T09:57:25Z</time>
      </trkpt>
      <trkpt lat="48.67301" lon="2.04519">
        <ele>169</ele>
        <time>2015-01-23T09:57:51Z</time>
      </trkpt>
      <trkpt lat="48.67297" lon="2.04512">
        <ele>169</ele>
        <time>2015-01-23T09:57:56Z</time>
      </trkpt>
      <trkpt lat="48.67296" lon="2.04481">
        <ele>169</ele>
        <time>2015-01-23T09:58:20Z</time>
      </trkpt>
      <trkpt lat="48.67303" lon="2.04428">
        <ele>169</ele>
        <time>2015-01-23T09:58:51Z</time>
      </trkpt>
      <trkpt lat="48.67303" lon="2.04421">
        <ele>169</ele>
        <time>2015-01-23T09:58:57Z</time>
      </trkpt>
      <trkpt lat="48.67309" lon="2.04368">
        <ele>169</ele>
        <time>2015-01-23T09:59:27Z</time>
      </trkpt>
      <trkpt lat="48.67308" lon="2.0433">
        <ele>168</ele>
        <time>2015-01-23T09:59:49Z</time>
      </trkpt>
      <trkpt lat="48.67309" lon="2.04322">
        <ele>169</ele>
        <time>2015-01-23T09:59:53Z</time>
      </trkpt>
      <trkpt lat="48.67319" lon="2.04266">
        <ele>168</ele>
        <time>2015-01-23T10:00:26Z</time>
      </trkpt>
      <trkpt lat="48.67317" lon="2.04248">
        <ele>168</ele>
        <time>2015-01-23T10:00:33Z</time>
      </trkpt>
      <trkpt lat="48.67323" lon="2.04192">
        <ele>168</ele>
        <time>2015-01-23T10:01:07Z</time>
      </trkpt>
      <trkpt lat="48.67329" lon="2.04132">
        <ele>167</ele>
        <time>2015-01-23T10:01:38Z</time>
      </trkpt>
      <trkpt lat="48.67333" lon="2.0407">
        <ele>168</ele>
        <time>2015-01-23T10:02:11Z</time>
      </trkpt>
      <trkpt lat="48.67333" lon="2.0401">
        <ele>168</ele>
        <time>2015-01-23T10:02:44Z</time>
      </trkpt>
      <trkpt lat="48.67341" lon="2.03954">
        <ele>168</ele>
        <time>2015-01-23T10:03:16Z</time>
      </trkpt>
      <trkpt lat="48.67345" lon="2.03891">
        <ele>168</ele>
        <time>2015-01-23T10:03:48Z</time>
      </trkpt>
      <trkpt lat="48.67351" lon="2.03831">
        <ele>168</ele>
        <time>2015-01-23T10:04:22Z</time>
      </trkpt>
      <trkpt lat="48.67355" lon="2.03773">
        <ele>168</ele>
        <time>2015-01-23T10:04:55Z</time>
      </trkpt>
      <trkpt lat="48.6736" lon="2.03715">
        <ele>168</ele>
        <time>2015-01-23T10:05:28Z</time>
      </trkpt>
      <trkpt lat="48.67364" lon="2.03656">
        <ele>168</ele>
        <time>2015-01-23T10:06:00Z</time>
      </trkpt>
      <trkpt lat="48.67372" lon="2.03596">
        <ele>169</ele>
        <time>2015-01-23T10:06:33Z</time>
      </trkpt>
      <trkpt lat="48.67376" lon="2.03545">
        <ele>170</ele>
        <time>2015-01-23T10:07:04Z</time>
      </trkpt>
      <trkpt lat="48.67384" lon="2.03482">
        <ele>170</ele>
        <time>2015-01-23T10:07:36Z</time>
      </trkpt>
      <trkpt lat="48.67389" lon="2.03428">
        <ele>170</ele>
        <time>2015-01-23T10:08:10Z</time>
      </trkpt>
      <trkpt lat="48.67397" lon="2.03364">
        <ele>171</ele>
        <time>2015-01-23T10:08:44Z</time>
      </trkpt>
      <trkpt lat="48.67397" lon="2.03358">
        <ele>171</ele>
        <time>2015-01-23T10:08:53Z</time>
      </trkpt>
      <trkpt lat="48.67399" lon="2.03353">
        <ele>171</ele>
        <time>2015-01-23T10:09:23Z</time>
      </trkpt>
      <trkpt lat="48.674" lon="2.03346">
        <ele>171</ele>
        <time>2015-01-23T10:09:38Z</time>
      </trkpt>
      <trkpt lat="48.67405" lon="2.03346">
        <ele>171</ele>
        <time>2015-01-23T10:09:50Z</time>
      </trkpt>
      <trkpt lat="48.67441" lon="2.0335">
        <ele>171</ele>
        <time>2015-01-23T10:10:22Z</time>
      </trkpt>
      <trkpt lat="48.67482" lon="2.03351">
        <ele>172</ele>
        <time>2015-01-23T10:10:55Z</time>
      </trkpt>
      <trkpt lat="48.67517" lon="2.03354">
        <ele>172</ele>
        <time>2015-01-23T10:11:26Z</time>
      </trkpt>
      <trkpt lat="48.67522" lon="2.03351">
        <ele>172</ele>
        <time>2015-01-23T10:11:30Z</time>
      </trkpt>
      <trkpt lat="48.67558" lon="2.03353">
        <ele>171</ele>
        <time>2015-01-23T10:12:01Z</time>
      </trkpt>
      <trkpt lat="48.67576" lon="2.0335">
        <ele>171</ele>
        <time>2015-01-23T10:12:14Z</time>
      </trkpt>
      <trkpt lat="48.67617" lon="2.0336">
        <ele>170</ele>
        <time>2015-01-23T10:12:45Z</time>
      </trkpt>
      <trkpt lat="48.67657" lon="2.0336">
        <ele>170</ele>
        <time>2015-01-23T10:13:18Z</time>
      </trkpt>
      <trkpt lat="48.67671" lon="2.03365">
        <ele>170</ele>
        <time>2015-01-23T10:13:31Z</time>
      </trkpt>
      <trkpt lat="48.67709" lon="2.0337">
        <ele>169</ele>
        <time>2015-01-23T10:14:03Z</time>
      </trkpt>
      <trkpt lat="48.67755" lon="2.03374">
        <ele>167</ele>
        <time>2015-01-23T10:14:37Z</time>
      </trkpt>
      <trkpt lat="48.67796" lon="2.03382">
        <ele>167</ele>
        <time>2015-01-23T10:15:11Z</time>
      </trkpt>
      <trkpt lat="48.67833" lon="2.03385">
        <ele>166</ele>
        <time>2015-01-23T10:15:42Z</time>
      </trkpt>
      <trkpt lat="48.67871" lon="2.03391">
        <ele>166</ele>
        <time>2015-01-23T10:16:13Z</time>
      </trkpt>
      <trkpt lat="48.67909" lon="2.03393">
        <ele>165</ele>
        <time>2015-01-23T10:16:45Z</time>
      </trkpt>
      <trkpt lat="48.67947" lon="2.03395">
        <ele>165</ele>
        <time>2015-01-23T10:17:15Z</time>
      </trkpt>
      <trkpt lat="48.67985" lon="2.03374">
        <ele>166</ele>
        <time>2015-01-23T10:17:47Z</time>
      </trkpt>
      <trkpt lat="48.68004" lon="2.03365">
        <ele>166</ele>
        <time>2015-01-23T10:18:08Z</time>
      </trkpt>
      <trkpt lat="48.68007" lon="2.03359">
        <ele>166</ele>
        <time>2015-01-23T10:18:12Z</time>
      </trkpt>
      <trkpt lat="48.68012" lon="2.03354">
        <ele>166</ele>
        <time>2015-01-23T10:18:18Z</time>
      </trkpt>
      <trkpt lat="48.68017" lon="2.03353">
        <ele>166</ele>
        <time>2015-01-23T10:18:23Z</time>
      </trkpt>
      <trkpt lat="48.68025" lon="2.03346">
        <ele>166</ele>
        <time>2015-01-23T10:18:37Z</time>
      </trkpt>
      <trkpt lat="48.68033" lon="2.03345">
        <ele>166</ele>
        <time>2015-01-23T10:18:43Z</time>
      </trkpt>
      <trkpt lat="48.6807" lon="2.0332">
        <ele>166</ele>
        <time>2015-01-23T10:19:15Z</time>
      </trkpt>
      <trkpt lat="48.68107" lon="2.03301">
        <ele>166</ele>
        <time>2015-01-23T10:19:46Z</time>
      </trkpt>
      <trkpt lat="48.68144" lon="2.03283">
        <ele>166</ele>
        <time>2015-01-23T10:20:21Z</time>
      </trkpt>
      <trkpt lat="48.6815" lon="2.03281">
        <ele>166</ele>
        <time>2015-01-23T10:20:25Z</time>
      </trkpt>
      <trkpt lat="48.68159" lon="2.03279">
        <ele>166</ele>
        <time>2015-01-23T10:20:33Z</time>
      </trkpt>
      <trkpt lat="48.68172" lon="2.03267">
        <ele>167</ele>
        <time>2015-01-23T10:20:48Z</time>
      </trkpt>
      <trkpt lat="48.68179" lon="2.03267">
        <ele>168</ele>
        <time>2015-01-23T10:20:52Z</time>
      </trkpt>
      <trkpt lat="48.682" lon="2.03245">
        <ele>168</ele>
        <time>2015-01-23T10:21:11Z</time>
      </trkpt>
      <trkpt lat="48.68212" lon="2.03222">
        <ele>167</ele>
        <time>2015-01-23T10:21:28Z</time>
      </trkpt>
      <trkpt lat="48.68212" lon="2.03214">
        <ele>167</ele>
        <time>2015-01-23T10:21:34Z</time>
      </trkpt>
      <trkpt lat="48.68213" lon="2.03207">
        <ele>168</ele>
        <time>2015-01-23T10:21:39Z</time>
      </trkpt>
      <trkpt lat="48.68213" lon="2.032">
        <ele>168</ele>
        <time>2015-01-23T10:21:43Z</time>
      </trkpt>
      <trkpt lat="48.68219" lon="2.03177">
        <ele>168</ele>
        <time>2015-01-23T10:21:55Z</time>
      </trkpt>
      <trkpt lat="48.6822" lon="2.03169">
        <ele>167</ele>
        <time>2015-01-23T10:21:59Z</time>
      </trkpt>
      <trkpt lat="48.68222" lon="2.03146">
        <ele>167</ele>
        <time>2015-01-23T10:22:12Z</time>
      </trkpt>
      <trkpt lat="48.68225" lon="2.0314">
        <ele>167</ele>
        <time>2015-01-23T10:22:16Z</time>
      </trkpt>
      <trkpt lat="48.68243" lon="2.03095">
        <ele>167</ele>
        <time>2015-01-23T10:22:46Z</time>
      </trkpt>
      <trkpt lat="48.68246" lon="2.0309">
        <ele>167</ele>
        <time>2015-01-23T10:22:51Z</time>
      </trkpt>
      <trkpt lat="48.68259" lon="2.03048">
        <ele>167</ele>
        <time>2015-01-23T10:23:23Z</time>
      </trkpt>
      <trkpt lat="48.68262" lon="2.03042">
        <ele>167</ele>
        <time>2015-01-23T10:23:29Z</time>
      </trkpt>
      <trkpt lat="48.68265" lon="2.03035">
        <ele>167</ele>
        <time>2015-01-23T10:23:33Z</time>
      </trkpt>
      <trkpt lat="48.68269" lon="2.03029">
        <ele>167</ele>
        <time>2015-01-23T10:23:39Z</time>
      </trkpt>
      <trkpt lat="48.68289" lon="2.02986">
        <ele>167</ele>
        <time>2015-01-23T10:24:10Z</time>
      </trkpt>
      <trkpt lat="48.68313" lon="2.02945">
        <ele>166</ele>
        <time>2015-01-23T10:24:40Z</time>
      </trkpt>
      <trkpt lat="48.68346" lon="2.02929">
        <ele>167</ele>
        <time>2015-01-23T10:25:13Z</time>
      </trkpt>
      <trkpt lat="48.68369" lon="2.02915">
        <ele>167</ele>
        <time>2015-01-23T10:25:33Z</time>
      </trkpt>
      <trkpt lat="48.68373" lon="2.02915">
        <ele>167</ele>
        <time>2015-01-23T10:25:38Z</time>
      </trkpt>
      <trkpt lat="48.68378" lon="2.02912">
        <ele>167</ele>
        <time>2015-01-23T10:25:44Z</time>
      </trkpt>
      <trkpt lat="48.68418" lon="2.02871">
        <ele>167</ele>
        <time>2015-01-23T10:26:14Z</time>
      </trkpt>
      <trkpt lat="48.68448" lon="2.02842">
        <ele>167</ele>
        <time>2015-01-23T10:26:44Z</time>
      </trkpt>
      <trkpt lat="48.68452" lon="2.02841">
        <ele>167</ele>
        <time>2015-01-23T10:26:49Z</time>
      </trkpt>
      <trkpt lat="48.68475" lon="2.02803">
        <ele>167</ele>
        <time>2015-01-23T10:27:16Z</time>
      </trkpt>
      <trkpt lat="48.68498" lon="2.0276">
        <ele>167</ele>
        <time>2015-01-23T10:27:47Z</time>
      </trkpt>
      <trkpt lat="48.68507" lon="2.02744">
        <ele>167</ele>
        <time>2015-01-23T10:27:57Z</time>
      </trkpt>
      <trkpt lat="48.68526" lon="2.0268">
        <ele>166</ele>
        <time>2015-01-23T10:28:29Z</time>
      </trkpt>
      <trkpt lat="48.68536" lon="2.02662">
        <ele>166</ele>
        <time>2015-01-23T10:28:43Z</time>
      </trkpt>
      <trkpt lat="48.68537" lon="2.02655">
        <ele>166</ele>
        <time>2015-01-23T10:28:48Z</time>
      </trkpt>
      <trkpt lat="48.6854" lon="2.0265">
        <ele>166</ele>
        <time>2015-01-23T10:28:52Z</time>
      </trkpt>
      <trkpt lat="48.68544" lon="2.02636">
        <ele>165</ele>
        <time>2015-01-23T10:28:59Z</time>
      </trkpt>
      <trkpt lat="48.68553" lon="2.02622">
        <ele>166</ele>
        <time>2015-01-23T10:29:10Z</time>
      </trkpt>
      <trkpt lat="48.68562" lon="2.02596">
        <ele>165</ele>
        <time>2015-01-23T10:29:24Z</time>
      </trkpt>
      <trkpt lat="48.68567" lon="2.02595">
        <ele>165</ele>
        <time>2015-01-23T10:29:30Z</time>
      </trkpt>
      <trkpt lat="48.6857" lon="2.0259">
        <ele>165</ele>
        <time>2015-01-23T10:29:34Z</time>
      </trkpt>
      <trkpt lat="48.68594" lon="2.02539">
        <ele>164</ele>
        <time>2015-01-23T10:30:04Z</time>
      </trkpt>
      <trkpt lat="48.68619" lon="2.02491">
        <ele>164</ele>
        <time>2015-01-23T10:30:35Z</time>
      </trkpt>
      <trkpt lat="48.68638" lon="2.02445">
        <ele>163</ele>
        <time>2015-01-23T10:31:06Z</time>
      </trkpt>
      <trkpt lat="48.68651" lon="2.02423">
        <ele>163</ele>
        <time>2015-01-23T10:31:23Z</time>
      </trkpt>
      <trkpt lat="48.68652" lon="2.02416">
        <ele>163</ele>
        <time>2015-01-23T10:31:26Z</time>
      </trkpt>
      <trkpt lat="48.68655" lon="2.02411">
        <ele>163</ele>
        <time>2015-01-23T10:31:29Z</time>
      </trkpt>
      <trkpt lat="48.6867" lon="2.02401">
        <ele>163</ele>
        <time>2015-01-23T10:31:40Z</time>
      </trkpt>
      <trkpt lat="48.68672" lon="2.02394">
        <ele>163</ele>
        <time>2015-01-23T10:31:44Z</time>
      </trkpt>
      <trkpt lat="48.68703" lon="2.02367">
        <ele>163</ele>
        <time>2015-01-23T10:32:17Z</time>
      </trkpt>
      <trkpt lat="48.68747" lon="2.02346">
        <ele>164</ele>
        <time>2015-01-23T10:32:49Z</time>
      </trkpt>
      <trkpt lat="48.68788" lon="2.02344">
        <ele>165</ele>
        <time>2015-01-23T10:33:20Z</time>
      </trkpt>
      <trkpt lat="48.68793" lon="2.02344">
        <ele>165</ele>
        <time>2015-01-23T10:33:24Z</time>
      </trkpt>
      <trkpt lat="48.6883" lon="2.02367">
        <ele>165</ele>
        <time>2015-01-23T10:33:57Z</time>
      </trkpt>
      <trkpt lat="48.68843" lon="2.02372">
        <ele>166</ele>
        <time>2015-01-23T10:34:05Z</time>
      </trkpt>
      <trkpt lat="48.68877" lon="2.02396">
        <ele>164</ele>
        <time>2015-01-23T10:34:37Z</time>
      </trkpt>
      <trkpt lat="48.68886" lon="2.02402">
        <ele>163</ele>
        <time>2015-01-23T10:34:45Z</time>
      </trkpt>
      <trkpt lat="48.68892" lon="2.02403">
        <ele>163</ele>
        <time>2015-01-23T10:34:48Z</time>
      </trkpt>
      <trkpt lat="48.68897" lon="2.02403">
        <ele>163</ele>
        <time>2015-01-23T10:34:53Z</time>
      </trkpt>
      <trkpt lat="48.68911" lon="2.02416">
        <ele>162</ele>
        <time>2015-01-23T10:35:05Z</time>
      </trkpt>
      <trkpt lat="48.68914" lon="2.02422">
        <ele>162</ele>
        <time>2015-01-23T10:35:09Z</time>
      </trkpt>
      <trkpt lat="48.68923" lon="2.02441">
        <ele>162</ele>
        <time>2015-01-23T10:35:20Z</time>
      </trkpt>
      <trkpt lat="48.68926" lon="2.0245">
        <ele>162</ele>
        <time>2015-01-23T10:35:23Z</time>
      </trkpt>
      <trkpt lat="48.68928" lon="2.02456">
        <ele>162</ele>
        <time>2015-01-23T10:35:26Z</time>
      </trkpt>
      <trkpt lat="48.68927" lon="2.02472">
        <ele>161</ele>
        <time>2015-01-23T10:35:36Z</time>
      </trkpt>
      <trkpt lat="48.68934" lon="2.02484">
        <ele>161</ele>
        <time>2015-01-23T10:35:45Z</time>
      </trkpt>
      <trkpt lat="48.68934" lon="2.02498">
        <ele>161</ele>
        <time>2015-01-23T10:35:52Z</time>
      </trkpt>
      <trkpt lat="48.68946" lon="2.02538">
        <ele>160</ele>
        <time>2015-01-23T10:36:12Z</time>
      </trkpt>
      <trkpt lat="48.6895" lon="2.02543">
        <ele>160</ele>
        <time>2015-01-23T10:36:15Z</time>
      </trkpt>
      <trkpt lat="48.68966" lon="2.02592">
        <ele>159</ele>
        <time>2015-01-23T10:36:46Z</time>
      </trkpt>
      <trkpt lat="48.68986" lon="2.02649">
        <ele>158</ele>
        <time>2015-01-23T10:37:19Z</time>
      </trkpt>
      <trkpt lat="48.69004" lon="2.02705">
        <ele>157</ele>
        <time>2015-01-23T10:37:51Z</time>
      </trkpt>
      <trkpt lat="48.6901" lon="2.02726">
        <ele>156</ele>
        <time>2015-01-23T10:38:03Z</time>
      </trkpt>
      <trkpt lat="48.69015" lon="2.02748">
        <ele>157</ele>
        <time>2015-01-23T10:38:15Z</time>
      </trkpt>
      <trkpt lat="48.69035" lon="2.02803">
        <ele>155</ele>
        <time>2015-01-23T10:38:48Z</time>
      </trkpt>
      <trkpt lat="48.69055" lon="2.02857">
        <ele>155</ele>
        <time>2015-01-23T10:39:19Z</time>
      </trkpt>
      <trkpt lat="48.69075" lon="2.02914">
        <ele>154</ele>
        <time>2015-01-23T10:39:52Z</time>
      </trkpt>
      <trkpt lat="48.69094" lon="2.02969">
        <ele>153</ele>
        <time>2015-01-23T10:40:24Z</time>
      </trkpt>
      <trkpt lat="48.69098" lon="2.02985">
        <ele>153</ele>
        <time>2015-01-23T10:40:32Z</time>
      </trkpt>
      <trkpt lat="48.69103" lon="2.03006">
        <ele>153</ele>
        <time>2015-01-23T10:40:45Z</time>
      </trkpt>
      <trkpt lat="48.69106" lon="2.03012">
        <ele>153</ele>
        <time>2015-01-23T10:40:49Z</time>
      </trkpt>
      <trkpt lat="48.69127" lon="2.03061">
        <ele>152</ele>
        <time>2015-01-23T10:41:20Z</time>
      </trkpt>
      <trkpt lat="48.69148" lon="2.03114">
        <ele>152</ele>
        <time>2015-01-23T10:41:51Z</time>
      </trkpt>
      <trkpt lat="48.69151" lon="2.03178">
        <ele>152</ele>
        <time>2015-01-23T10:42:22Z</time>
      </trkpt>
      <trkpt lat="48.69146" lon="2.0323">
        <ele>153</ele>
        <time>2015-01-23T10:42:52Z</time>
      </trkpt>
      <trkpt lat="48.69136" lon="2.03292">
        <ele>154</ele>
        <time>2015-01-23T10:43:24Z</time>
      </trkpt>
      <trkpt lat="48.6913" lon="2.03337">
        <ele>154</ele>
        <time>2015-01-23T10:43:54Z</time>
      </trkpt>
      <trkpt lat="48.69124" lon="2.03364">
        <ele>154</ele>
        <time>2015-01-23T10:44:18Z</time>
      </trkpt>
      <trkpt lat="48.69125" lon="2.03367">
        <ele>155</ele>
        <time>2015-01-23T10:47:08Z</time>
      </trkpt>
      <trkpt lat="48.69122" lon="2.03372">
        <ele>155</ele>
        <time>2015-01-23T10:47:20Z</time>
      </trkpt>
      <trkpt lat="48.6912" lon="2.03374">
        <ele>155</ele>
        <time>2015-01-23T10:47:31Z</time>
      </trkpt>
      <trkpt lat="48.69119" lon="2.03383">
        <ele>154</ele>
        <time>2015-01-23T10:48:39Z</time>
      </trkpt>
      <trkpt lat="48.69118" lon="2.03413">
        <ele>155</ele>
        <time>2015-01-23T10:48:59Z</time>
      </trkpt>
      <trkpt lat="48.69143" lon="2.03461">
        <ele>153</ele>
        <time>2015-01-23T10:49:35Z</time>
      </trkpt>
      <trkpt lat="48.69175" lon="2.035">
        <ele>152</ele>
        <time>2015-01-23T10:50:09Z</time>
      </trkpt>
      <trkpt lat="48.69207" lon="2.03518">
        <ele>151</ele>
        <time>2015-01-23T10:50:41Z</time>
      </trkpt>
      <trkpt lat="48.69237" lon="2.03537">
        <ele>150</ele>
        <time>2015-01-23T10:51:12Z</time>
      </trkpt>
      <trkpt lat="48.69276" lon="2.03565">
        <ele>149</ele>
        <time>2015-01-23T10:51:45Z</time>
      </trkpt>
      <trkpt lat="48.69314" lon="2.03589">
        <ele>148</ele>
        <time>2015-01-23T10:52:18Z</time>
      </trkpt>
      <trkpt lat="48.69355" lon="2.03619">
        <ele>147</ele>
        <time>2015-01-23T10:52:53Z</time>
      </trkpt>
      <trkpt lat="48.69372" lon="2.03631">
        <ele>147</ele>
        <time>2015-01-23T10:53:05Z</time>
      </trkpt>
      <trkpt lat="48.69403" lon="2.03648">
        <ele>150</ele>
        <time>2015-01-23T10:53:36Z</time>
      </trkpt>
      <trkpt lat="48.69438" lon="2.03671">
        <ele>153</ele>
        <time>2015-01-23T10:54:10Z</time>
      </trkpt>
      <trkpt lat="48.69476" lon="2.03704">
        <ele>156</ele>
        <time>2015-01-23T10:54:45Z</time>
      </trkpt>
      <trkpt lat="48.69478" lon="2.03705">
        <ele>156</ele>
        <time>2015-01-23T10:54:47Z</time>
      </trkpt>
      <trkpt lat="48.69493" lon="2.03712">
        <ele>156</ele>
        <time>2015-01-23T10:55:01Z</time>
      </trkpt>
      <trkpt lat="48.69524" lon="2.03739">
        <ele>158</ele>
        <time>2015-01-23T10:55:32Z</time>
      </trkpt>
      <trkpt lat="48.6956" lon="2.03762">
        <ele>160</ele>
        <time>2015-01-23T10:56:05Z</time>
      </trkpt>
      <trkpt lat="48.69596" lon="2.03787">
        <ele>161</ele>
        <time>2015-01-23T10:56:35Z</time>
      </trkpt>
      <trkpt lat="48.69629" lon="2.03804">
        <ele>162</ele>
        <time>2015-01-23T10:57:07Z</time>
      </trkpt>
      <trkpt lat="48.69647" lon="2.03816">
        <ele>162</ele>
        <time>2015-01-23T10:57:22Z</time>
      </trkpt>
      <trkpt lat="48.69682" lon="2.03843">
        <ele>162</ele>
        <time>2015-01-23T10:57:54Z</time>
      </trkpt>
      <trkpt lat="48.69722" lon="2.03869">
        <ele>162</ele>
        <time>2015-01-23T10:58:27Z</time>
      </trkpt>
      <trkpt lat="48.69754" lon="2.03891">
        <ele>161</ele>
        <time>2015-01-23T10:58:58Z</time>
      </trkpt>
      <trkpt lat="48.69792" lon="2.03917">
        <ele>160</ele>
        <time>2015-01-23T10:59:29Z</time>
      </trkpt>
      <trkpt lat="48.69829" lon="2.03941">
        <ele>156</ele>
        <time>2015-01-23T11:00:02Z</time>
      </trkpt>
      <trkpt lat="48.69861" lon="2.03969">
        <ele>150</ele>
        <time>2015-01-23T11:00:35Z</time>
      </trkpt>
      <trkpt lat="48.69889" lon="2.03984">
        <ele>144</ele>
        <time>2015-01-23T11:01:06Z</time>
      </trkpt>
      <trkpt lat="48.6991" lon="2.03998">
        <ele>137</ele>
        <time>2015-01-23T11:01:39Z</time>
      </trkpt>
      <trkpt lat="48.69957" lon="2.04026">
        <ele>130</ele>
        <time>2015-01-23T11:02:13Z</time>
      </trkpt>
      <trkpt lat="48.6999" lon="2.04064">
        <ele>123</ele>
        <time>2015-01-23T11:02:45Z</time>
      </trkpt>
      <trkpt lat="48.70001" lon="2.04073">
        <ele>122</ele>
        <time>2015-01-23T11:02:56Z</time>
      </trkpt>
      <trkpt lat="48.70006" lon="2.04074">
        <ele>120</ele>
        <time>2015-01-23T11:03:06Z</time>
      </trkpt>
      <trkpt lat="48.7001" lon="2.04074">
        <ele>119</ele>
        <time>2015-01-23T11:03:09Z</time>
      </trkpt>
      <trkpt lat="48.70015" lon="2.04067">
        <ele>118</ele>
        <time>2015-01-23T11:03:27Z</time>
      </trkpt>
      <trkpt lat="48.70018" lon="2.04068">
        <ele>118</ele>
        <time>2015-01-23T11:03:37Z</time>
      </trkpt>
      <trkpt lat="48.70022" lon="2.04069">
        <ele>118</ele>
        <time>2015-01-23T11:03:55Z</time>
      </trkpt>
      <trkpt lat="48.70023" lon="2.04075">
        <ele>117</ele>
        <time>2015-01-23T11:04:07Z</time>
      </trkpt>
      <trkpt lat="48.70026" lon="2.04075">
        <ele>117</ele>
        <time>2015-01-23T11:04:29Z</time>
      </trkpt>
      <trkpt lat="48.70029" lon="2.04072">
        <ele>117</ele>
        <time>2015-01-23T11:04:35Z</time>
      </trkpt>
      <trkpt lat="48.70063" lon="2.04071">
        <ele>111</ele>
        <time>2015-01-23T11:05:05Z</time>
      </trkpt>
      <trkpt lat="48.70104" lon="2.04075">
        <ele>107</ele>
        <time>2015-01-23T11:05:36Z</time>
      </trkpt>
      <trkpt lat="48.70107" lon="2.04075">
        <ele>107</ele>
        <time>2015-01-23T11:05:38Z</time>
      </trkpt>
      <trkpt lat="48.70111" lon="2.04077">
        <ele>106</ele>
        <time>2015-01-23T11:05:45Z</time>
      </trkpt>
      <trkpt lat="48.70116" lon="2.04075">
        <ele>106</ele>
        <time>2015-01-23T11:05:49Z</time>
      </trkpt>
      <trkpt lat="48.70119" lon="2.04075">
        <ele>105</ele>
        <time>2015-01-23T11:05:51Z</time>
      </trkpt>
      <trkpt lat="48.70124" lon="2.04075">
        <ele>105</ele>
        <time>2015-01-23T11:05:53Z</time>
      </trkpt>
      <trkpt lat="48.70129" lon="2.04074">
        <ele>105</ele>
        <time>2015-01-23T11:05:57Z</time>
      </trkpt>
      <trkpt lat="48.70167" lon="2.04062">
        <ele>100</ele>
        <time>2015-01-23T11:06:33Z</time>
      </trkpt>
      <trkpt lat="48.70172" lon="2.04058">
        <ele>100</ele>
        <time>2015-01-23T11:06:37Z</time>
      </trkpt>
      <trkpt lat="48.70178" lon="2.04058">
        <ele>100</ele>
        <time>2015-01-23T11:06:39Z</time>
      </trkpt>
      <trkpt lat="48.70182" lon="2.04056">
        <ele>99</ele>
        <time>2015-01-23T11:06:47Z</time>
      </trkpt>
      <trkpt lat="48.70187" lon="2.04056">
        <ele>99</ele>
        <time>2015-01-23T11:06:51Z</time>
      </trkpt>
      <trkpt lat="48.70195" lon="2.04052">
        <ele>98</ele>
        <time>2015-01-23T11:07:04Z</time>
      </trkpt>
      <trkpt lat="48.70199" lon="2.04048">
        <ele>96</ele>
        <time>2015-01-23T11:08:44Z</time>
      </trkpt>
      <trkpt lat="48.70229" lon="2.04045">
        <ele>93</ele>
        <time>2015-01-23T11:09:17Z</time>
      </trkpt>
      <trkpt lat="48.70234" lon="2.04043">
        <ele>93</ele>
        <time>2015-01-23T11:09:19Z</time>
      </trkpt>
      <trkpt lat="48.70239" lon="2.0404">
        <ele>93</ele>
        <time>2015-01-23T11:09:27Z</time>
      </trkpt>
      <trkpt lat="48.70242" lon="2.04037">
        <ele>92</ele>
        <time>2015-01-23T11:09:29Z</time>
      </trkpt>
      <trkpt lat="48.70278" lon="2.04035">
        <ele>90</ele>
        <time>2015-01-23T11:10:00Z</time>
      </trkpt>
      <trkpt lat="48.70314" lon="2.04005">
        <ele>87</ele>
        <time>2015-01-23T11:10:35Z</time>
      </trkpt>
      <trkpt lat="48.70341" lon="2.03991">
        <ele>84</ele>
        <time>2015-01-23T11:11:04Z</time>
      </trkpt>
      <trkpt lat="48.70369" lon="2.03957">
        <ele>79</ele>
        <time>2015-01-23T11:11:35Z</time>
      </trkpt>
      <trkpt lat="48.704" lon="2.03944">
        <ele>76</ele>
        <time>2015-01-23T11:12:07Z</time>
      </trkpt>
      <trkpt lat="48.70406" lon="2.03943">
        <ele>76</ele>
        <time>2015-01-23T11:12:11Z</time>
      </trkpt>
      <trkpt lat="48.70411" lon="2.03945">
        <ele>76</ele>
        <time>2015-01-23T11:12:16Z</time>
      </trkpt>
      <trkpt lat="48.70439" lon="2.0394">
        <ele>75</ele>
        <time>2015-01-23T11:12:39Z</time>
      </trkpt>
      <trkpt lat="48.70442" lon="2.03947">
        <ele>75</ele>
        <time>2015-01-23T11:12:45Z</time>
      </trkpt>
      <trkpt lat="48.70444" lon="2.03948">
        <ele>75</ele>
        <time>2015-01-23T11:12:48Z</time>
      </trkpt>
      <trkpt lat="48.70448" lon="2.03944">
        <ele>75</ele>
        <time>2015-01-23T11:12:53Z</time>
      </trkpt>
      <trkpt lat="48.70449" lon="2.03937">
        <ele>75</ele>
        <time>2015-01-23T11:12:59Z</time>
      </trkpt>
      <trkpt lat="48.70452" lon="2.03915">
        <ele>74</ele>
        <time>2015-01-23T11:13:13Z</time>
      </trkpt>
      <trkpt lat="48.70454" lon="2.03908">
        <ele>75</ele>
        <time>2015-01-23T11:13:17Z</time>
      </trkpt>
      <trkpt lat="48.70457" lon="2.03847">
        <ele>74</ele>
        <time>2015-01-23T11:13:51Z</time>
      </trkpt>
      <trkpt lat="48.70459" lon="2.03839">
        <ele>74</ele>
        <time>2015-01-23T11:13:56Z</time>
      </trkpt>
      <trkpt lat="48.70459" lon="2.03784">
        <ele>74</ele>
        <time>2015-01-23T11:14:25Z</time>
      </trkpt>
      <trkpt lat="48.70463" lon="2.03778">
        <ele>74</ele>
        <time>2015-01-23T11:14:29Z</time>
      </trkpt>
      <trkpt lat="48.70472" lon="2.03773">
        <ele>73</ele>
        <time>2015-01-23T11:14:37Z</time>
      </trkpt>
      <trkpt lat="48.70488" lon="2.03772">
        <ele>73</ele>
        <time>2015-01-23T11:14:50Z</time>
      </trkpt>
      <trkpt lat="48.70493" lon="2.03775">
        <ele>73</ele>
        <time>2015-01-23T11:14:54Z</time>
      </trkpt>
      <trkpt lat="48.70496" lon="2.03783">
        <ele>74</ele>
        <time>2015-01-23T11:14:58Z</time>
      </trkpt>
      <trkpt lat="48.70497" lon="2.0379">
        <ele>73</ele>
        <time>2015-01-23T11:15:02Z</time>
      </trkpt>
      <trkpt lat="48.70498" lon="2.03844">
        <ele>72</ele>
        <time>2015-01-23T11:15:32Z</time>
      </trkpt>
      <trkpt lat="48.70498" lon="2.03855">
        <ele>72</ele>
        <time>2015-01-23T11:15:37Z</time>
      </trkpt>
      <trkpt lat="48.70489" lon="2.03882">
        <ele>72</ele>
        <time>2015-01-23T11:15:56Z</time>
      </trkpt>
      <trkpt lat="48.70483" lon="2.03883">
        <ele>72</ele>
        <time>2015-01-23T11:16:03Z</time>
      </trkpt>
      <trkpt lat="48.70482" lon="2.03875">
        <ele>72</ele>
        <time>2015-01-23T11:16:12Z</time>
      </trkpt>
      <trkpt lat="48.70487" lon="2.03876">
        <ele>72</ele>
        <time>2015-01-23T11:18:30Z</time>
      </trkpt>
      <trkpt lat="48.70489" lon="2.03892">
        <ele>72</ele>
        <time>2015-01-23T11:19:02Z</time>
      </trkpt>
      <trkpt lat="48.70488" lon="2.03896">
        <ele>72</ele>
        <time>2015-01-23T11:19:13Z</time>
      </trkpt>
      <trkpt lat="48.70485" lon="2.03896">
        <ele>72</ele>
        <time>2015-01-23T11:19:20Z</time>
      </trkpt>
      <trkpt lat="48.70482" lon="2.03891">
        <ele>72</ele>
        <time>2015-01-23T11:19:34Z</time>
      </trkpt>
      <trkpt lat="48.70482" lon="2.03878">
        <ele>72</ele>
        <time>2015-01-23T11:19:57Z</time>
      </trkpt>
      <trkpt lat="48.70485" lon="2.03875">
        <ele>72</ele>
        <time>2015-01-23T11:20:45Z</time>
      </trkpt>
      <trkpt lat="48.70482" lon="2.03878">
        <ele>71</ele>
        <time>2015-01-23T11:26:32Z</time>
      </trkpt>
      <trkpt lat="48.70484" lon="2.03878">
        <ele>70</ele>
        <time>2015-01-23T11:45:08Z</time>
      </trkpt>
      <trkpt lat="48.7049" lon="2.03883">
        <ele>70</ele>
        <time>2015-01-23T11:45:31Z</time>
      </trkpt>
      <trkpt lat="48.70489" lon="2.03893">
        <ele>71</ele>
        <time>2015-01-23T11:47:47Z</time>
      </trkpt>
      <trkpt lat="48.70487" lon="2.03899">
        <ele>71</ele>
        <time>2015-01-23T11:47:55Z</time>
      </trkpt>
      <trkpt lat="48.7048" lon="2.03909">
        <ele>71</ele>
        <time>2015-01-23T11:48:04Z</time>
      </trkpt>
      <trkpt lat="48.70475" lon="2.03912">
        <ele>71</ele>
        <time>2015-01-23T11:48:10Z</time>
      </trkpt>
      <trkpt lat="48.70467" lon="2.03933">
        <ele>72</ele>
        <time>2015-01-23T11:48:28Z</time>
      </trkpt>
      <trkpt lat="48.70465" lon="2.0394">
        <ele>72</ele>
        <time>2015-01-23T11:48:32Z</time>
      </trkpt>
      <trkpt lat="48.70468" lon="2.03948">
        <ele>72</ele>
        <time>2015-01-23T11:48:37Z</time>
      </trkpt>
      <trkpt lat="48.70486" lon="2.03971">
        <ele>72</ele>
        <time>2015-01-23T11:48:59Z</time>
      </trkpt>
      <trkpt lat="48.70511" lon="2.03975">
        <ele>72</ele>
        <time>2015-01-23T11:49:24Z</time>
      </trkpt>
      <trkpt lat="48.70519" lon="2.03981">
        <ele>72</ele>
        <time>2015-01-23T11:49:35Z</time>
      </trkpt>
      <trkpt lat="48.70522" lon="2.03987">
        <ele>72</ele>
        <time>2015-01-23T11:49:41Z</time>
      </trkpt>
      <trkpt lat="48.7052" lon="2.03994">
        <ele>72</ele>
        <time>2015-01-23T11:49:49Z</time>
      </trkpt>
      <trkpt lat="48.70525" lon="2.03994">
        <ele>72</ele>
        <time>2015-01-23T11:49:54Z</time>
      </trkpt>
      <trkpt lat="48.70529" lon="2.03998">
        <ele>72</ele>
        <time>2015-01-23T11:49:58Z</time>
      </trkpt>
      <trkpt lat="48.70536" lon="2.0401">
        <ele>72</ele>
        <time>2015-01-23T11:50:08Z</time>
      </trkpt>
      <trkpt lat="48.70541" lon="2.04022">
        <ele>72</ele>
        <time>2015-01-23T11:50:17Z</time>
      </trkpt>
      <trkpt lat="48.70543" lon="2.04046">
        <ele>73</ele>
        <time>2015-01-23T11:50:44Z</time>
      </trkpt>
      <trkpt lat="48.70547" lon="2.04052">
        <ele>73</ele>
        <time>2015-01-23T11:50:49Z</time>
      </trkpt>
      <trkpt lat="48.70547" lon="2.0406">
        <ele>73</ele>
        <time>2015-01-23T11:50:54Z</time>
      </trkpt>
      <trkpt lat="48.70554" lon="2.04116">
        <ele>74</ele>
        <time>2015-01-23T11:51:27Z</time>
      </trkpt>
      <trkpt lat="48.7056" lon="2.04162">
        <ele>73</ele>
        <time>2015-01-23T11:51:54Z</time>
      </trkpt>
      <trkpt lat="48.70562" lon="2.04184">
        <ele>73</ele>
        <time>2015-01-23T11:52:06Z</time>
      </trkpt>
      <trkpt lat="48.7056" lon="2.04191">
        <ele>73</ele>
        <time>2015-01-23T11:52:11Z</time>
      </trkpt>
      <trkpt lat="48.7057" lon="2.04238">
        <ele>74</ele>
        <time>2015-01-23T11:52:45Z</time>
      </trkpt>
      <trkpt lat="48.70583" lon="2.04258">
        <ele>73</ele>
        <time>2015-01-23T11:53:05Z</time>
      </trkpt>
      <trkpt lat="48.70602" lon="2.0431">
        <ele>73</ele>
        <time>2015-01-23T11:53:37Z</time>
      </trkpt>
      <trkpt lat="48.70613" lon="2.04369">
        <ele>73</ele>
        <time>2015-01-23T11:54:10Z</time>
      </trkpt>
      <trkpt lat="48.70619" lon="2.04381">
        <ele>73</ele>
        <time>2015-01-23T11:54:19Z</time>
      </trkpt>
      <trkpt lat="48.70624" lon="2.04381">
        <ele>73</ele>
        <time>2015-01-23T11:54:24Z</time>
      </trkpt>
      <trkpt lat="48.70629" lon="2.04379">
        <ele>73</ele>
        <time>2015-01-23T11:54:29Z</time>
      </trkpt>
      <trkpt lat="48.70631" lon="2.04389">
        <ele>73</ele>
        <time>2015-01-23T11:54:52Z</time>
      </trkpt>
      <trkpt lat="48.70629" lon="2.04396">
        <ele>73</ele>
        <time>2015-01-23T11:54:57Z</time>
      </trkpt>
      <trkpt lat="48.7063" lon="2.04404">
        <ele>73</ele>
        <time>2015-01-23T11:55:02Z</time>
      </trkpt>
      <trkpt lat="48.70638" lon="2.04413">
        <ele>73</ele>
        <time>2015-01-23T11:55:14Z</time>
      </trkpt>
      <trkpt lat="48.70673" lon="2.04418">
        <ele>73</ele>
        <time>2015-01-23T11:55:41Z</time>
      </trkpt>
      <trkpt lat="48.70676" lon="2.04422">
        <ele>73</ele>
        <time>2015-01-23T11:55:50Z</time>
      </trkpt>
      <trkpt lat="48.70674" lon="2.04429">
        <ele>73</ele>
        <time>2015-01-23T11:55:56Z</time>
      </trkpt>
      <trkpt lat="48.70675" lon="2.04444">
        <ele>73</ele>
        <time>2015-01-23T11:56:06Z</time>
      </trkpt>
      <trkpt lat="48.70671" lon="2.04479">
        <ele>73</ele>
        <time>2015-01-23T11:56:25Z</time>
      </trkpt>
      <trkpt lat="48.70673" lon="2.04487">
        <ele>73</ele>
        <time>2015-01-23T11:56:28Z</time>
      </trkpt>
      <trkpt lat="48.70672" lon="2.04502">
        <ele>73</ele>
        <time>2015-01-23T11:56:36Z</time>
      </trkpt>
      <trkpt lat="48.70667" lon="2.04516">
        <ele>73</ele>
        <time>2015-01-23T11:56:47Z</time>
      </trkpt>
      <trkpt lat="48.70662" lon="2.04544">
        <ele>73</ele>
        <time>2015-01-23T11:57:06Z</time>
      </trkpt>
      <trkpt lat="48.70663" lon="2.04566">
        <ele>73</ele>
        <time>2015-01-23T11:57:19Z</time>
      </trkpt>
      <trkpt lat="48.70662" lon="2.0457">
        <ele>74</ele>
        <time>2015-01-23T11:57:26Z</time>
      </trkpt>
      <trkpt lat="48.70659" lon="2.04585">
        <ele>74</ele>
        <time>2015-01-23T11:57:42Z</time>
      </trkpt>
      <trkpt lat="48.70656" lon="2.04622">
        <ele>73</ele>
        <time>2015-01-23T11:57:59Z</time>
      </trkpt>
      <trkpt lat="48.70652" lon="2.04654">
        <ele>73</ele>
        <time>2015-01-23T11:58:18Z</time>
      </trkpt>
      <trkpt lat="48.70648" lon="2.04658">
        <ele>73</ele>
        <time>2015-01-23T11:58:24Z</time>
      </trkpt>
      <trkpt lat="48.70647" lon="2.04665">
        <ele>74</ele>
        <time>2015-01-23T11:58:30Z</time>
      </trkpt>
      <trkpt lat="48.70651" lon="2.04711">
        <ele>73</ele>
        <time>2015-01-23T11:59:03Z</time>
      </trkpt>
      <trkpt lat="48.70654" lon="2.0472">
        <ele>73</ele>
        <time>2015-01-23T11:59:07Z</time>
      </trkpt>
      <trkpt lat="48.70654" lon="2.04751">
        <ele>73</ele>
        <time>2015-01-23T11:59:22Z</time>
      </trkpt>
      <trkpt lat="48.70654" lon="2.04783">
        <ele>73</ele>
        <time>2015-01-23T11:59:40Z</time>
      </trkpt>
      <trkpt lat="48.7065" lon="2.0484">
        <ele>73</ele>
        <time>2015-01-23T12:00:10Z</time>
      </trkpt>
      <trkpt lat="48.70645" lon="2.04877">
        <ele>72</ele>
        <time>2015-01-23T12:00:30Z</time>
      </trkpt>
      <trkpt lat="48.70645" lon="2.04898">
        <ele>73</ele>
        <time>2015-01-23T12:00:40Z</time>
      </trkpt>
      <trkpt lat="48.70644" lon="2.04905">
        <ele>73</ele>
        <time>2015-01-23T12:00:44Z</time>
      </trkpt>
      <trkpt lat="48.70645" lon="2.04913">
        <ele>72</ele>
        <time>2015-01-23T12:00:49Z</time>
      </trkpt>
      <trkpt lat="48.70645" lon="2.04921">
        <ele>72</ele>
        <time>2015-01-23T12:00:57Z</time>
      </trkpt>
      <trkpt lat="48.70642" lon="2.04927">
        <ele>72</ele>
        <time>2015-01-23T12:01:02Z</time>
      </trkpt>
      <trkpt lat="48.70634" lon="2.04982">
        <ele>73</ele>
        <time>2015-01-23T12:01:32Z</time>
      </trkpt>
      <trkpt lat="48.7063" lon="2.04996">
        <ele>73</ele>
        <time>2015-01-23T12:01:40Z</time>
      </trkpt>
      <trkpt lat="48.70626" lon="2.05001">
        <ele>72</ele>
        <time>2015-01-23T12:01:45Z</time>
      </trkpt>
      <trkpt lat="48.70621" lon="2.05025">
        <ele>72</ele>
        <time>2015-01-23T12:01:55Z</time>
      </trkpt>
      <trkpt lat="48.70622" lon="2.05032">
        <ele>72</ele>
        <time>2015-01-23T12:01:59Z</time>
      </trkpt>
      <trkpt lat="48.70615" lon="2.05092">
        <ele>72</ele>
        <time>2015-01-23T12:02:31Z</time>
      </trkpt>
      <trkpt lat="48.70608" lon="2.05148">
        <ele>72</ele>
        <time>2015-01-23T12:03:01Z</time>
      </trkpt>
      <trkpt lat="48.70601" lon="2.0516">
        <ele>71</ele>
        <time>2015-01-23T12:03:08Z</time>
      </trkpt>
      <trkpt lat="48.70594" lon="2.0516">
        <ele>71</ele>
        <time>2015-01-23T12:03:17Z</time>
      </trkpt>
      <trkpt lat="48.70584" lon="2.05158">
        <ele>71</ele>
        <time>2015-01-23T12:03:23Z</time>
      </trkpt>
      <trkpt lat="48.70578" lon="2.05157">
        <ele>71</ele>
        <time>2015-01-23T12:03:27Z</time>
      </trkpt>
      <trkpt lat="48.7057" lon="2.05166">
        <ele>71</ele>
        <time>2015-01-23T12:03:35Z</time>
      </trkpt>
      <trkpt lat="48.70561" lon="2.05185">
        <ele>70</ele>
        <time>2015-01-23T12:03:50Z</time>
      </trkpt>
      <trkpt lat="48.70562" lon="2.05191">
        <ele>70</ele>
        <time>2015-01-23T12:03:54Z</time>
      </trkpt>
      <trkpt lat="48.70569" lon="2.05209">
        <ele>71</ele>
        <time>2015-01-23T12:04:05Z</time>
      </trkpt>
      <trkpt lat="48.70566" lon="2.05216">
        <ele>71</ele>
        <time>2015-01-23T12:04:11Z</time>
      </trkpt>
      <trkpt lat="48.70561" lon="2.05218">
        <ele>71</ele>
        <time>2015-01-23T12:04:16Z</time>
      </trkpt>
      <trkpt lat="48.70548" lon="2.05227">
        <ele>70</ele>
        <time>2015-01-23T12:04:28Z</time>
      </trkpt>
      <trkpt lat="48.70524" lon="2.05265">
        <ele>69</ele>
        <time>2015-01-23T12:04:58Z</time>
      </trkpt>
      <trkpt lat="48.70517" lon="2.05276">
        <ele>69</ele>
        <time>2015-01-23T12:05:08Z</time>
      </trkpt>
      <trkpt lat="48.70514" lon="2.05301">
        <ele>69</ele>
        <time>2015-01-23T12:05:22Z</time>
      </trkpt>
      <trkpt lat="48.70515" lon="2.05309">
        <ele>69</ele>
        <time>2015-01-23T12:05:25Z</time>
      </trkpt>
      <trkpt lat="48.70506" lon="2.05347">
        <ele>69</ele>
        <time>2015-01-23T12:05:45Z</time>
      </trkpt>
      <trkpt lat="48.70482" lon="2.05393">
        <ele>69</ele>
        <time>2015-01-23T12:06:15Z</time>
      </trkpt>
      <trkpt lat="48.7048" lon="2.05398">
        <ele>69</ele>
        <time>2015-01-23T12:06:18Z</time>
      </trkpt>
      <trkpt lat="48.70478" lon="2.05401">
        <ele>69</ele>
        <time>2015-01-23T12:06:20Z</time>
      </trkpt>
      <trkpt lat="48.70471" lon="2.05419">
        <ele>69</ele>
        <time>2015-01-23T12:06:32Z</time>
      </trkpt>
      <trkpt lat="48.70465" lon="2.05428">
        <ele>69</ele>
        <time>2015-01-23T12:06:37Z</time>
      </trkpt>
      <trkpt lat="48.70464" lon="2.05436">
        <ele>69</ele>
        <time>2015-01-23T12:06:40Z</time>
      </trkpt>
      <trkpt lat="48.70449" lon="2.05472">
        <ele>68</ele>
        <time>2015-01-23T12:07:01Z</time>
      </trkpt>
      <trkpt lat="48.70444" lon="2.05476">
        <ele>68</ele>
        <time>2015-01-23T12:07:06Z</time>
      </trkpt>
      <trkpt lat="48.70442" lon="2.05482">
        <ele>68</ele>
        <time>2015-01-23T12:07:10Z</time>
      </trkpt>
      <trkpt lat="48.70439" lon="2.055">
        <ele>69</ele>
        <time>2015-01-23T12:07:17Z</time>
      </trkpt>
      <trkpt lat="48.70435" lon="2.05506">
        <ele>69</ele>
        <time>2015-01-23T12:07:21Z</time>
      </trkpt>
      <trkpt lat="48.70433" lon="2.05515">
        <ele>69</ele>
        <time>2015-01-23T12:07:26Z</time>
      </trkpt>
      <trkpt lat="48.70431" lon="2.05537">
        <ele>69</ele>
        <time>2015-01-23T12:07:40Z</time>
      </trkpt>
      <trkpt lat="48.70429" lon="2.05543">
        <ele>69</ele>
        <time>2015-01-23T12:07:45Z</time>
      </trkpt>
      <trkpt lat="48.70427" lon="2.0555">
        <ele>69</ele>
        <time>2015-01-23T12:07:54Z</time>
      </trkpt>
      <trkpt lat="48.70424" lon="2.05554">
        <ele>69</ele>
        <time>2015-01-23T12:08:10Z</time>
      </trkpt>
      <trkpt lat="48.70419" lon="2.05555">
        <ele>70</ele>
        <time>2015-01-23T12:08:14Z</time>
      </trkpt>
      <trkpt lat="48.70414" lon="2.05554">
        <ele>70</ele>
        <time>2015-01-23T12:08:21Z</time>
      </trkpt>
      <trkpt lat="48.70412" lon="2.0555">
        <ele>70</ele>
        <time>2015-01-23T12:08:29Z</time>
      </trkpt>
      <trkpt lat="48.70407" lon="2.0555">
        <ele>70</ele>
        <time>2015-01-23T12:08:33Z</time>
      </trkpt>
      <trkpt lat="48.70365" lon="2.05551">
        <ele>70</ele>
        <time>2015-01-23T12:09:05Z</time>
      </trkpt>
      <trkpt lat="48.70364" lon="2.05559">
        <ele>70</ele>
        <time>2015-01-23T12:09:09Z</time>
      </trkpt>
      <trkpt lat="48.70364" lon="2.05566">
        <ele>70</ele>
        <time>2015-01-23T12:09:13Z</time>
      </trkpt>
      <trkpt lat="48.70358" lon="2.05565">
        <ele>70</ele>
        <time>2015-01-23T12:09:18Z</time>
      </trkpt>
      <trkpt lat="48.70322" lon="2.05559">
        <ele>71</ele>
        <time>2015-01-23T12:09:48Z</time>
      </trkpt>
      <trkpt lat="48.70317" lon="2.05558">
        <ele>71</ele>
        <time>2015-01-23T12:09:51Z</time>
      </trkpt>
      <trkpt lat="48.70313" lon="2.05555">
        <ele>71</ele>
        <time>2015-01-23T12:09:57Z</time>
      </trkpt>
      <trkpt lat="48.7027" lon="2.05551">
        <ele>72</ele>
        <time>2015-01-23T12:10:28Z</time>
      </trkpt>
      <trkpt lat="48.70256" lon="2.05549">
        <ele>72</ele>
        <time>2015-01-23T12:10:38Z</time>
      </trkpt>
      <trkpt lat="48.70242" lon="2.05554">
        <ele>72</ele>
        <time>2015-01-23T12:10:51Z</time>
      </trkpt>
      <trkpt lat="48.70242" lon="2.05562">
        <ele>73</ele>
        <time>2015-01-23T12:10:56Z</time>
      </trkpt>
      <trkpt lat="48.70236" lon="2.05583">
        <ele>74</ele>
        <time>2015-01-23T12:11:09Z</time>
      </trkpt>
      <trkpt lat="48.70238" lon="2.05598">
        <ele>74</ele>
        <time>2015-01-23T12:11:15Z</time>
      </trkpt>
      <trkpt lat="48.70239" lon="2.05642">
        <ele>74</ele>
        <time>2015-01-23T12:11:42Z</time>
      </trkpt>
      <trkpt lat="48.70257" lon="2.05697">
        <ele>74</ele>
        <time>2015-01-23T12:12:15Z</time>
      </trkpt>
      <trkpt lat="48.70263" lon="2.0572">
        <ele>74</ele>
        <time>2015-01-23T12:12:29Z</time>
      </trkpt>
      <trkpt lat="48.7027" lon="2.0576">
        <ele>74</ele>
        <time>2015-01-23T12:12:50Z</time>
      </trkpt>
      <trkpt lat="48.70272" lon="2.0582">
        <ele>73</ele>
        <time>2015-01-23T12:13:21Z</time>
      </trkpt>
      <trkpt lat="48.70268" lon="2.05881">
        <ele>73</ele>
        <time>2015-01-23T12:13:54Z</time>
      </trkpt>
      <trkpt lat="48.70268" lon="2.05935">
        <ele>74</ele>
        <time>2015-01-23T12:14:26Z</time>
      </trkpt>
      <trkpt lat="48.70263" lon="2.05992">
        <ele>73</ele>
        <time>2015-01-23T12:14:57Z</time>
      </trkpt>
      <trkpt lat="48.70263" lon="2.05997">
        <ele>73</ele>
        <time>2015-01-23T12:15:05Z</time>
      </trkpt>
      <trkpt lat="48.70265" lon="2.05999">
        <ele>73</ele>
        <time>2015-01-23T12:15:39Z</time>
      </trkpt>
      <trkpt lat="48.70266" lon="2.06015">
        <ele>73</ele>
        <time>2015-01-23T12:16:09Z</time>
      </trkpt>
      <trkpt lat="48.70261" lon="2.06079">
        <ele>72</ele>
        <time>2015-01-23T12:16:42Z</time>
      </trkpt>
      <trkpt lat="48.70258" lon="2.06142">
        <ele>71</ele>
        <time>2015-01-23T12:17:14Z</time>
      </trkpt>
      <trkpt lat="48.70258" lon="2.06203">
        <ele>71</ele>
        <time>2015-01-23T12:17:47Z</time>
      </trkpt>
      <trkpt lat="48.70256" lon="2.0621">
        <ele>71</ele>
        <time>2015-01-23T12:17:51Z</time>
      </trkpt>
      <trkpt lat="48.70248" lon="2.06229">
        <ele>71</ele>
        <time>2015-01-23T12:18:04Z</time>
      </trkpt>
      <trkpt lat="48.70235" lon="2.06288">
        <ele>71</ele>
        <time>2015-01-23T12:18:34Z</time>
      </trkpt>
      <trkpt lat="48.70236" lon="2.06356">
        <ele>70</ele>
        <time>2015-01-23T12:19:08Z</time>
      </trkpt>
      <trkpt lat="48.70234" lon="2.06418">
        <ele>69</ele>
        <time>2015-01-23T12:19:41Z</time>
      </trkpt>
      <trkpt lat="48.7023" lon="2.06482">
        <ele>68</ele>
        <time>2015-01-23T12:20:13Z</time>
      </trkpt>
      <trkpt lat="48.70231" lon="2.06545">
        <ele>68</ele>
        <time>2015-01-23T12:20:46Z</time>
      </trkpt>
      <trkpt lat="48.7023" lon="2.06554">
        <ele>68</ele>
        <time>2015-01-23T12:20:50Z</time>
      </trkpt>
      <trkpt lat="48.7024" lon="2.06599">
        <ele>68</ele>
        <time>2015-01-23T12:21:11Z</time>
      </trkpt>
      <trkpt lat="48.70246" lon="2.06613">
        <ele>68</ele>
        <time>2015-01-23T12:21:19Z</time>
      </trkpt>
      <trkpt lat="48.70246" lon="2.06621">
        <ele>68</ele>
        <time>2015-01-23T12:21:24Z</time>
      </trkpt>
      <trkpt lat="48.70255" lon="2.06677">
        <ele>68</ele>
        <time>2015-01-23T12:21:56Z</time>
      </trkpt>
      <trkpt lat="48.70257" lon="2.06685">
        <ele>68</ele>
        <time>2015-01-23T12:22:01Z</time>
      </trkpt>
      <trkpt lat="48.70262" lon="2.06724">
        <ele>68</ele>
        <time>2015-01-23T12:22:23Z</time>
      </trkpt>
      <trkpt lat="48.7027" lon="2.06747">
        <ele>67</ele>
        <time>2015-01-23T12:22:36Z</time>
      </trkpt>
      <trkpt lat="48.70268" lon="2.06762">
        <ele>67</ele>
        <time>2015-01-23T12:22:45Z</time>
      </trkpt>
      <trkpt lat="48.70282" lon="2.0682">
        <ele>67</ele>
        <time>2015-01-23T12:23:15Z</time>
      </trkpt>
      <trkpt lat="48.70283" lon="2.06828">
        <ele>67</ele>
        <time>2015-01-23T12:23:19Z</time>
      </trkpt>
      <trkpt lat="48.703" lon="2.06876">
        <ele>67</ele>
        <time>2015-01-23T12:23:49Z</time>
      </trkpt>
      <trkpt lat="48.70312" lon="2.06901">
        <ele>67</ele>
        <time>2015-01-23T12:24:03Z</time>
      </trkpt>
      <trkpt lat="48.70313" lon="2.06909">
        <ele>67</ele>
        <time>2015-01-23T12:24:08Z</time>
      </trkpt>
      <trkpt lat="48.70322" lon="2.06939">
        <ele>67</ele>
        <time>2015-01-23T12:24:26Z</time>
      </trkpt>
      <trkpt lat="48.70318" lon="2.0694">
        <ele>68</ele>
        <time>2015-01-23T12:24:35Z</time>
      </trkpt>
      <trkpt lat="48.70313" lon="2.06941">
        <ele>68</ele>
        <time>2015-01-23T12:26:56Z</time>
      </trkpt>
      <trkpt lat="48.70279" lon="2.06955">
        <ele>71</ele>
        <time>2015-01-23T12:27:26Z</time>
      </trkpt>
      <trkpt lat="48.70274" lon="2.06958">
        <ele>72</ele>
        <time>2015-01-23T12:27:33Z</time>
      </trkpt>
      <trkpt lat="48.70272" lon="2.06964">
        <ele>72</ele>
        <time>2015-01-23T12:27:36Z</time>
      </trkpt>
      <trkpt lat="48.70268" lon="2.06967">
        <ele>72</ele>
        <time>2015-01-23T12:27:42Z</time>
      </trkpt>
      <trkpt lat="48.70229" lon="2.06967">
        <ele>75</ele>
        <time>2015-01-23T12:28:14Z</time>
      </trkpt>
      <trkpt lat="48.7021" lon="2.06973">
        <ele>76</ele>
        <time>2015-01-23T12:28:28Z</time>
      </trkpt>
      <trkpt lat="48.70206" lon="2.06971">
        <ele>76</ele>
        <time>2015-01-23T12:28:32Z</time>
      </trkpt>
      <trkpt lat="48.702" lon="2.06971">
        <ele>76</ele>
        <time>2015-01-23T12:28:36Z</time>
      </trkpt>
      <trkpt lat="48.70193" lon="2.06978">
        <ele>77</ele>
        <time>2015-01-23T12:28:45Z</time>
      </trkpt>
      <trkpt lat="48.70192" lon="2.06985">
        <ele>78</ele>
        <time>2015-01-23T12:28:51Z</time>
      </trkpt>
      <trkpt lat="48.70189" lon="2.06992">
        <ele>78</ele>
        <time>2015-01-23T12:28:57Z</time>
      </trkpt>
      <trkpt lat="48.70185" lon="2.06996">
        <ele>79</ele>
        <time>2015-01-23T12:29:01Z</time>
      </trkpt>
      <trkpt lat="48.70183" lon="2.07003">
        <ele>79</ele>
        <time>2015-01-23T12:29:05Z</time>
      </trkpt>
      <trkpt lat="48.70181" lon="2.07009">
        <ele>79</ele>
        <time>2015-01-23T12:29:08Z</time>
      </trkpt>
      <trkpt lat="48.70154" lon="2.07051">
        <ele>81</ele>
        <time>2015-01-23T12:29:39Z</time>
      </trkpt>
      <trkpt lat="48.70145" lon="2.07069">
        <ele>82</ele>
        <time>2015-01-23T12:29:51Z</time>
      </trkpt>
      <trkpt lat="48.70117" lon="2.07112">
        <ele>84</ele>
        <time>2015-01-23T12:30:25Z</time>
      </trkpt>
      <trkpt lat="48.70096" lon="2.07129">
        <ele>85</ele>
        <time>2015-01-23T12:30:43Z</time>
      </trkpt>
      <trkpt lat="48.70095" lon="2.07136">
        <ele>85</ele>
        <time>2015-01-23T12:30:49Z</time>
      </trkpt>
      <trkpt lat="48.70098" lon="2.07149">
        <ele>86</ele>
        <time>2015-01-23T12:30:56Z</time>
      </trkpt>
      <trkpt lat="48.70107" lon="2.07169">
        <ele>86</ele>
        <time>2015-01-23T12:31:09Z</time>
      </trkpt>
      <trkpt lat="48.70107" lon="2.07177">
        <ele>86</ele>
        <time>2015-01-23T12:31:14Z</time>
      </trkpt>
      <trkpt lat="48.70111" lon="2.07192">
        <ele>86</ele>
        <time>2015-01-23T12:31:22Z</time>
      </trkpt>
      <trkpt lat="48.70108" lon="2.07206">
        <ele>87</ele>
        <time>2015-01-23T12:31:30Z</time>
      </trkpt>
      <trkpt lat="48.70106" lon="2.07215">
        <ele>87</ele>
        <time>2015-01-23T12:31:36Z</time>
      </trkpt>
      <trkpt lat="48.70104" lon="2.07266">
        <ele>89</ele>
        <time>2015-01-23T12:32:07Z</time>
      </trkpt>
      <trkpt lat="48.70102" lon="2.07272">
        <ele>89</ele>
        <time>2015-01-23T12:32:11Z</time>
      </trkpt>
      <trkpt lat="48.70103" lon="2.07279">
        <ele>89</ele>
        <time>2015-01-23T12:32:15Z</time>
      </trkpt>
      <trkpt lat="48.70089" lon="2.07346">
        <ele>90</ele>
        <time>2015-01-23T12:32:47Z</time>
      </trkpt>
      <trkpt lat="48.70076" lon="2.07402">
        <ele>92</ele>
        <time>2015-01-23T12:33:19Z</time>
      </trkpt>
      <trkpt lat="48.70061" lon="2.07457">
        <ele>94</ele>
        <time>2015-01-23T12:33:52Z</time>
      </trkpt>
      <trkpt lat="48.7006" lon="2.07463">
        <ele>94</ele>
        <time>2015-01-23T12:33:54Z</time>
      </trkpt>
      <trkpt lat="48.70057" lon="2.07469">
        <ele>94</ele>
        <time>2015-01-23T12:34:00Z</time>
      </trkpt>
      <trkpt lat="48.70047" lon="2.0752">
        <ele>96</ele>
        <time>2015-01-23T12:34:33Z</time>
      </trkpt>
      <trkpt lat="48.70037" lon="2.07576">
        <ele>98</ele>
        <time>2015-01-23T12:35:04Z</time>
      </trkpt>
      <trkpt lat="48.70038" lon="2.07583">
        <ele>98</ele>
        <time>2015-01-23T12:35:07Z</time>
      </trkpt>
      <trkpt lat="48.70033" lon="2.07587">
        <ele>98</ele>
        <time>2015-01-23T12:35:12Z</time>
      </trkpt>
      <trkpt lat="48.70029" lon="2.0759">
        <ele>99</ele>
        <time>2015-01-23T12:35:17Z</time>
      </trkpt>
      <trkpt lat="48.70028" lon="2.07585">
        <ele>99</ele>
        <time>2015-01-23T12:35:24Z</time>
      </trkpt>
      <trkpt lat="48.70024" lon="2.07587">
        <ele>99</ele>
        <time>2015-01-23T12:35:51Z</time>
      </trkpt>
      <trkpt lat="48.70025" lon="2.07595">
        <ele>99</ele>
        <time>2015-01-23T12:35:56Z</time>
      </trkpt>
      <trkpt lat="48.70027" lon="2.0761">
        <ele>100</ele>
        <time>2015-01-23T12:36:05Z</time>
      </trkpt>
      <trkpt lat="48.70024" lon="2.07617">
        <ele>100</ele>
        <time>2015-01-23T12:36:09Z</time>
      </trkpt>
      <trkpt lat="48.70021" lon="2.07624">
        <ele>101</ele>
        <time>2015-01-23T12:36:14Z</time>
      </trkpt>
      <trkpt lat="48.70022" lon="2.07631">
        <ele>101</ele>
        <time>2015-01-23T12:36:21Z</time>
      </trkpt>
      <trkpt lat="48.70019" lon="2.07675">
        <ele>105</ele>
        <time>2015-01-23T12:36:54Z</time>
      </trkpt>
      <trkpt lat="48.70014" lon="2.07678">
        <ele>106</ele>
        <time>2015-01-23T12:36:59Z</time>
      </trkpt>
      <trkpt lat="48.70008" lon="2.0769">
        <ele>108</ele>
        <time>2015-01-23T12:37:12Z</time>
      </trkpt>
      <trkpt lat="48.70003" lon="2.07733">
        <ele>111</ele>
        <time>2015-01-23T12:37:37Z</time>
      </trkpt>
      <trkpt lat="48.70005" lon="2.0774">
        <ele>112</ele>
        <time>2015-01-23T12:37:42Z</time>
      </trkpt>
      <trkpt lat="48.70003" lon="2.07747">
        <ele>112</ele>
        <time>2015-01-23T12:37:47Z</time>
      </trkpt>
      <trkpt lat="48.69985" lon="2.07794">
        <ele>116</ele>
        <time>2015-01-23T12:38:21Z</time>
      </trkpt>
      <trkpt lat="48.69985" lon="2.07801">
        <ele>116</ele>
        <time>2015-01-23T12:38:26Z</time>
      </trkpt>
      <trkpt lat="48.69973" lon="2.07833">
        <ele>119</ele>
        <time>2015-01-23T12:38:49Z</time>
      </trkpt>
      <trkpt lat="48.69969" lon="2.07847">
        <ele>119</ele>
        <time>2015-01-23T12:38:57Z</time>
      </trkpt>
      <trkpt lat="48.69965" lon="2.07851">
        <ele>119</ele>
        <time>2015-01-23T12:39:04Z</time>
      </trkpt>
      <trkpt lat="48.69946" lon="2.0786">
        <ele>124</ele>
        <time>2015-01-23T12:39:29Z</time>
      </trkpt>
      <trkpt lat="48.69943" lon="2.07861">
        <ele>125</ele>
        <time>2015-01-23T12:39:52Z</time>
      </trkpt>
      <trkpt lat="48.69941" lon="2.0786">
        <ele>125</ele>
        <time>2015-01-23T12:40:37Z</time>
      </trkpt>
      <trkpt lat="48.69936" lon="2.07863">
        <ele>125</ele>
        <time>2015-01-23T12:41:22Z</time>
      </trkpt>
      <trkpt lat="48.6993" lon="2.07874">
        <ele>125</ele>
        <time>2015-01-23T12:41:32Z</time>
      </trkpt>
      <trkpt lat="48.6993" lon="2.07882">
        <ele>125</ele>
        <time>2015-01-23T12:41:39Z</time>
      </trkpt>
      <trkpt lat="48.69925" lon="2.07885">
        <ele>125</ele>
        <time>2015-01-23T12:41:44Z</time>
      </trkpt>
      <trkpt lat="48.69916" lon="2.0789">
        <ele>125</ele>
        <time>2015-01-23T12:41:51Z</time>
      </trkpt>
      <trkpt lat="48.69896" lon="2.07892">
        <ele>125</ele>
        <time>2015-01-23T12:42:09Z</time>
      </trkpt>
      <trkpt lat="48.69892" lon="2.07889">
        <ele>126</ele>
        <time>2015-01-23T12:42:17Z</time>
      </trkpt>
      <trkpt lat="48.69875" lon="2.07893">
        <ele>129</ele>
        <time>2015-01-23T12:42:34Z</time>
      </trkpt>
      <trkpt lat="48.69871" lon="2.07887">
        <ele>130</ele>
        <time>2015-01-23T12:42:39Z</time>
      </trkpt>
      <trkpt lat="48.69868" lon="2.07881">
        <ele>131</ele>
        <time>2015-01-23T12:42:45Z</time>
      </trkpt>
      <trkpt lat="48.69861" lon="2.07881">
        <ele>131</ele>
        <time>2015-01-23T12:42:49Z</time>
      </trkpt>
      <trkpt lat="48.69856" lon="2.07881">
        <ele>132</ele>
        <time>2015-01-23T12:42:54Z</time>
      </trkpt>
      <trkpt lat="48.69847" lon="2.07877">
        <ele>133</ele>
        <time>2015-01-23T12:43:07Z</time>
      </trkpt>
      <trkpt lat="48.69838" lon="2.07881">
        <ele>133</ele>
        <time>2015-01-23T12:43:13Z</time>
      </trkpt>
      <trkpt lat="48.69829" lon="2.07875">
        <ele>134</ele>
        <time>2015-01-23T12:43:22Z</time>
      </trkpt>
      <trkpt lat="48.69822" lon="2.07864">
        <ele>135</ele>
        <time>2015-01-23T12:43:32Z</time>
      </trkpt>
      <trkpt lat="48.69817" lon="2.07862">
        <ele>135</ele>
        <time>2015-01-23T12:43:36Z</time>
      </trkpt>
      <trkpt lat="48.69813" lon="2.07856">
        <ele>135</ele>
        <time>2015-01-23T12:43:42Z</time>
      </trkpt>
      <trkpt lat="48.6981" lon="2.07835">
        <ele>137</ele>
        <time>2015-01-23T12:43:59Z</time>
      </trkpt>
      <trkpt lat="48.69809" lon="2.07832">
        <ele>137</ele>
        <time>2015-01-23T12:44:05Z</time>
      </trkpt>
      <trkpt lat="48.69806" lon="2.07826">
        <ele>137</ele>
        <time>2015-01-23T12:44:10Z</time>
      </trkpt>
      <trkpt lat="48.698" lon="2.07823">
        <ele>138</ele>
        <time>2015-01-23T12:44:13Z</time>
      </trkpt>
      <trkpt lat="48.6979" lon="2.07808">
        <ele>138</ele>
        <time>2015-01-23T12:44:26Z</time>
      </trkpt>
      <trkpt lat="48.69763" lon="2.07789">
        <ele>141</ele>
        <time>2015-01-23T12:45:00Z</time>
      </trkpt>
      <trkpt lat="48.6975" lon="2.07774">
        <ele>142</ele>
        <time>2015-01-23T12:45:15Z</time>
      </trkpt>
      <trkpt lat="48.69746" lon="2.07773">
        <ele>142</ele>
        <time>2015-01-23T12:45:20Z</time>
      </trkpt>
      <trkpt lat="48.69711" lon="2.07778">
        <ele>143</ele>
        <time>2015-01-23T12:45:53Z</time>
      </trkpt>
      <trkpt lat="48.69698" lon="2.07766">
        <ele>144</ele>
        <time>2015-01-23T12:46:04Z</time>
      </trkpt>
      <trkpt lat="48.69692" lon="2.07753">
        <ele>144</ele>
        <time>2015-01-23T12:46:12Z</time>
      </trkpt>
      <trkpt lat="48.69682" lon="2.07751">
        <ele>145</ele>
        <time>2015-01-23T12:46:27Z</time>
      </trkpt>
      <trkpt lat="48.69677" lon="2.07751">
        <ele>145</ele>
        <time>2015-01-23T12:46:40Z</time>
      </trkpt>
      <trkpt lat="48.69674" lon="2.07749">
        <ele>145</ele>
        <time>2015-01-23T12:46:53Z</time>
      </trkpt>
      <trkpt lat="48.69675" lon="2.07744">
        <ele>145</ele>
        <time>2015-01-23T12:47:05Z</time>
      </trkpt>
      <trkpt lat="48.69671" lon="2.0774">
        <ele>145</ele>
        <time>2015-01-23T12:47:12Z</time>
      </trkpt>
      <trkpt lat="48.69663" lon="2.0773">
        <ele>145</ele>
        <time>2015-01-23T12:47:23Z</time>
      </trkpt>
      <trkpt lat="48.69658" lon="2.0773">
        <ele>145</ele>
        <time>2015-01-23T12:47:28Z</time>
      </trkpt>
      <trkpt lat="48.6963" lon="2.07741">
        <ele>146</ele>
        <time>2015-01-23T12:48:01Z</time>
      </trkpt>
      <trkpt lat="48.69623" lon="2.07746">
        <ele>147</ele>
        <time>2015-01-23T12:48:06Z</time>
      </trkpt>
      <trkpt lat="48.69606" lon="2.07763">
        <ele>147</ele>
        <time>2015-01-23T12:48:26Z</time>
      </trkpt>
      <trkpt lat="48.6959" lon="2.07804">
        <ele>147</ele>
        <time>2015-01-23T12:48:57Z</time>
      </trkpt>
      <trkpt lat="48.6957" lon="2.07849">
        <ele>147</ele>
        <time>2015-01-23T12:49:33Z</time>
      </trkpt>
      <trkpt lat="48.6956" lon="2.07863">
        <ele>147</ele>
        <time>2015-01-23T12:49:44Z</time>
      </trkpt>
      <trkpt lat="48.69545" lon="2.07911">
        <ele>147</ele>
        <time>2015-01-23T12:50:17Z</time>
      </trkpt>
      <trkpt lat="48.69544" lon="2.07918">
        <ele>146</ele>
        <time>2015-01-23T12:50:23Z</time>
      </trkpt>
      <trkpt lat="48.6954" lon="2.07932">
        <ele>146</ele>
        <time>2015-01-23T12:50:33Z</time>
      </trkpt>
      <trkpt lat="48.69542" lon="2.07945">
        <ele>146</ele>
        <time>2015-01-23T12:50:38Z</time>
      </trkpt>
      <trkpt lat="48.69546" lon="2.07949">
        <ele>147</ele>
        <time>2015-01-23T12:50:44Z</time>
      </trkpt>
      <trkpt lat="48.69546" lon="2.07958">
        <ele>147</ele>
        <time>2015-01-23T12:50:49Z</time>
      </trkpt>
      <trkpt lat="48.6954" lon="2.0798">
        <ele>147</ele>
        <time>2015-01-23T12:51:00Z</time>
      </trkpt>
      <trkpt lat="48.69538" lon="2.07987">
        <ele>148</ele>
        <time>2015-01-23T12:51:05Z</time>
      </trkpt>
      <trkpt lat="48.6953" lon="2.08023">
        <ele>150</ele>
        <time>2015-01-23T12:51:28Z</time>
      </trkpt>
      <trkpt lat="48.69533" lon="2.08029">
        <ele>150</ele>
        <time>2015-01-23T12:51:32Z</time>
      </trkpt>
      <trkpt lat="48.69532" lon="2.08037">
        <ele>150</ele>
        <time>2015-01-23T12:51:36Z</time>
      </trkpt>
      <trkpt lat="48.69514" lon="2.08081">
        <ele>152</ele>
        <time>2015-01-23T12:52:06Z</time>
      </trkpt>
      <trkpt lat="48.695" lon="2.0814">
        <ele>154</ele>
        <time>2015-01-23T12:52:39Z</time>
      </trkpt>
      <trkpt lat="48.69494" lon="2.08152">
        <ele>154</ele>
        <time>2015-01-23T12:52:49Z</time>
      </trkpt>
      <trkpt lat="48.69496" lon="2.08159">
        <ele>154</ele>
        <time>2015-01-23T12:52:54Z</time>
      </trkpt>
      <trkpt lat="48.69493" lon="2.08165">
        <ele>155</ele>
        <time>2015-01-23T12:53:00Z</time>
      </trkpt>
      <trkpt lat="48.69491" lon="2.08171">
        <ele>155</ele>
        <time>2015-01-23T12:53:04Z</time>
      </trkpt>
      <trkpt lat="48.69478" lon="2.08211">
        <ele>155</ele>
        <time>2015-01-23T12:53:27Z</time>
      </trkpt>
      <trkpt lat="48.69474" lon="2.08213">
        <ele>155</ele>
        <time>2015-01-23T12:53:31Z</time>
      </trkpt>
      <trkpt lat="48.69469" lon="2.08212">
        <ele>155</ele>
        <time>2015-01-23T12:53:35Z</time>
      </trkpt>
      <trkpt lat="48.69466" lon="2.08209">
        <ele>155</ele>
        <time>2015-01-23T12:53:56Z</time>
      </trkpt>
      <trkpt lat="48.69466" lon="2.08212">
        <ele>156</ele>
        <time>2015-01-23T12:58:39Z</time>
      </trkpt>
      <trkpt lat="48.69464" lon="2.0822">
        <ele>156</ele>
        <time>2015-01-23T12:59:11Z</time>
      </trkpt>
      <trkpt lat="48.69462" lon="2.08226">
        <ele>157</ele>
        <time>2015-01-23T12:59:15Z</time>
      </trkpt>
      <trkpt lat="48.6944" lon="2.08281">
        <ele>156</ele>
        <time>2015-01-23T12:59:50Z</time>
      </trkpt>
      <trkpt lat="48.69435" lon="2.0829">
        <ele>156</ele>
        <time>2015-01-23T12:59:57Z</time>
      </trkpt>
      <trkpt lat="48.69432" lon="2.08296">
        <ele>156</ele>
        <time>2015-01-23T13:00:04Z</time>
      </trkpt>
      <trkpt lat="48.69429" lon="2.08304">
        <ele>156</ele>
        <time>2015-01-23T13:00:11Z</time>
      </trkpt>
      <trkpt lat="48.69421" lon="2.0835">
        <ele>155</ele>
        <time>2015-01-23T13:00:32Z</time>
      </trkpt>
      <trkpt lat="48.69417" lon="2.08354">
        <ele>155</ele>
        <time>2015-01-23T13:00:35Z</time>
      </trkpt>
      <trkpt lat="48.69399" lon="2.0841">
        <ele>154</ele>
        <time>2015-01-23T13:01:10Z</time>
      </trkpt>
      <trkpt lat="48.69396" lon="2.08418">
        <ele>154</ele>
        <time>2015-01-23T13:01:14Z</time>
      </trkpt>
      <trkpt lat="48.69392" lon="2.08422">
        <ele>154</ele>
        <time>2015-01-23T13:01:19Z</time>
      </trkpt>
      <trkpt lat="48.6939" lon="2.08428">
        <ele>154</ele>
        <time>2015-01-23T13:01:21Z</time>
      </trkpt>
      <trkpt lat="48.6939" lon="2.08436">
        <ele>154</ele>
        <time>2015-01-23T13:01:24Z</time>
      </trkpt>
      <trkpt lat="48.69374" lon="2.08491">
        <ele>153</ele>
        <time>2015-01-23T13:01:56Z</time>
      </trkpt>
      <trkpt lat="48.69363" lon="2.08527">
        <ele>153</ele>
        <time>2015-01-23T13:02:23Z</time>
      </trkpt>
      <trkpt lat="48.69368" lon="2.08531">
        <ele>153</ele>
        <time>2015-01-23T13:02:27Z</time>
      </trkpt>
      <trkpt lat="48.6937" lon="2.08535">
        <ele>153</ele>
        <time>2015-01-23T13:02:29Z</time>
      </trkpt>
      <trkpt lat="48.69371" lon="2.08542">
        <ele>153</ele>
        <time>2015-01-23T13:02:35Z</time>
      </trkpt>
      <trkpt lat="48.69367" lon="2.08549">
        <ele>153</ele>
        <time>2015-01-23T13:02:40Z</time>
      </trkpt>
      <trkpt lat="48.69349" lon="2.08591">
        <ele>153</ele>
        <time>2015-01-23T13:03:11Z</time>
      </trkpt>
      <trkpt lat="48.69347" lon="2.0862">
        <ele>154</ele>
        <time>2015-01-23T13:03:29Z</time>
      </trkpt>
      <trkpt lat="48.69334" lon="2.0867">
        <ele>155</ele>
        <time>2015-01-23T13:04:01Z</time>
      </trkpt>
      <trkpt lat="48.69322" lon="2.08714">
        <ele>155</ele>
        <time>2015-01-23T13:04:24Z</time>
      </trkpt>
      <trkpt lat="48.69318" lon="2.08719">
        <ele>156</ele>
        <time>2015-01-23T13:04:29Z</time>
      </trkpt>
      <trkpt lat="48.69317" lon="2.08747">
        <ele>156</ele>
        <time>2015-01-23T13:04:46Z</time>
      </trkpt>
      <trkpt lat="48.69315" lon="2.08754">
        <ele>156</ele>
        <time>2015-01-23T13:04:52Z</time>
      </trkpt>
      <trkpt lat="48.69314" lon="2.08783">
        <ele>156</ele>
        <time>2015-01-23T13:05:11Z</time>
      </trkpt>
      <trkpt lat="48.6931" lon="2.08785">
        <ele>156</ele>
        <time>2015-01-23T13:05:15Z</time>
      </trkpt>
      <trkpt lat="48.69306" lon="2.08784">
        <ele>156</ele>
        <time>2015-01-23T13:05:26Z</time>
      </trkpt>
      <trkpt lat="48.69293" lon="2.08774">
        <ele>156</ele>
        <time>2015-01-23T13:05:58Z</time>
      </trkpt>
      <trkpt lat="48.69263" lon="2.08741">
        <ele>156</ele>
        <time>2015-01-23T13:06:31Z</time>
      </trkpt>
      <trkpt lat="48.69261" lon="2.08735">
        <ele>156</ele>
        <time>2015-01-23T13:06:36Z</time>
      </trkpt>
      <trkpt lat="48.69226" lon="2.08701">
        <ele>156</ele>
        <time>2015-01-23T13:07:08Z</time>
      </trkpt>
      <trkpt lat="48.69192" lon="2.0867">
        <ele>157</ele>
        <time>2015-01-23T13:07:42Z</time>
      </trkpt>
      <trkpt lat="48.69182" lon="2.08665">
        <ele>157</ele>
        <time>2015-01-23T13:07:51Z</time>
      </trkpt>
      <trkpt lat="48.69153" lon="2.0864">
        <ele>158</ele>
        <time>2015-01-23T13:08:22Z</time>
      </trkpt>
      <trkpt lat="48.69148" lon="2.08636">
        <ele>158</ele>
        <time>2015-01-23T13:08:29Z</time>
      </trkpt>
      <trkpt lat="48.69144" lon="2.08622">
        <ele>158</ele>
        <time>2015-01-23T13:08:38Z</time>
      </trkpt>
      <trkpt lat="48.6912" lon="2.08604">
        <ele>159</ele>
        <time>2015-01-23T13:08:59Z</time>
      </trkpt>
      <trkpt lat="48.69118" lon="2.08598">
        <ele>159</ele>
        <time>2015-01-23T13:09:05Z</time>
      </trkpt>
      <trkpt lat="48.69113" lon="2.08592">
        <ele>159</ele>
        <time>2015-01-23T13:09:09Z</time>
      </trkpt>
      <trkpt lat="48.69083" lon="2.08569">
        <ele>160</ele>
        <time>2015-01-23T13:09:35Z</time>
      </trkpt>
      <trkpt lat="48.69081" lon="2.08561">
        <ele>160</ele>
        <time>2015-01-23T13:09:43Z</time>
      </trkpt>
      <trkpt lat="48.69074" lon="2.08557">
        <ele>160</ele>
        <time>2015-01-23T13:09:47Z</time>
      </trkpt>
      <trkpt lat="48.69044" lon="2.08532">
        <ele>161</ele>
        <time>2015-01-23T13:10:21Z</time>
      </trkpt>
      <trkpt lat="48.69015" lon="2.085">
        <ele>162</ele>
        <time>2015-01-23T13:10:51Z</time>
      </trkpt>
      <trkpt lat="48.69" lon="2.08483">
        <ele>162</ele>
        <time>2015-01-23T13:11:10Z</time>
      </trkpt>
      <trkpt lat="48.68994" lon="2.08482">
        <ele>162</ele>
        <time>2015-01-23T13:11:13Z</time>
      </trkpt>
      <trkpt lat="48.68991" lon="2.08483">
        <ele>162</ele>
        <time>2015-01-23T13:11:14Z</time>
      </trkpt>
      <trkpt lat="48.68988" lon="2.08477">
        <ele>162</ele>
        <time>2015-01-23T13:11:21Z</time>
      </trkpt>
      <trkpt lat="48.68958" lon="2.08447">
        <ele>163</ele>
        <time>2015-01-23T13:11:53Z</time>
      </trkpt>
      <trkpt lat="48.68929" lon="2.08415">
        <ele>163</ele>
        <time>2015-01-23T13:12:25Z</time>
      </trkpt>
      <trkpt lat="48.68923" lon="2.08403">
        <ele>164</ele>
        <time>2015-01-23T13:12:38Z</time>
      </trkpt>
      <trkpt lat="48.68917" lon="2.08402">
        <ele>164</ele>
        <time>2015-01-23T13:12:45Z</time>
      </trkpt>
      <trkpt lat="48.68884" lon="2.08406">
        <ele>165</ele>
        <time>2015-01-23T13:13:19Z</time>
      </trkpt>
      <trkpt lat="48.68883" lon="2.08404">
        <ele>165</ele>
        <time>2015-01-23T13:14:06Z</time>
      </trkpt>
      <trkpt lat="48.6885" lon="2.08422">
        <ele>165</ele>
        <time>2015-01-23T13:14:37Z</time>
      </trkpt>
      <trkpt lat="48.68819" lon="2.0844">
        <ele>166</ele>
        <time>2015-01-23T13:15:08Z</time>
      </trkpt>
      <trkpt lat="48.68814" lon="2.08443">
        <ele>167</ele>
        <time>2015-01-23T13:15:12Z</time>
      </trkpt>
      <trkpt lat="48.68777" lon="2.08442">
        <ele>167</ele>
        <time>2015-01-23T13:15:44Z</time>
      </trkpt>
      <trkpt lat="48.68739" lon="2.08436">
        <ele>168</ele>
        <time>2015-01-23T13:16:17Z</time>
      </trkpt>
      <trkpt lat="48.68734" lon="2.08434">
        <ele>168</ele>
        <time>2015-01-23T13:16:21Z</time>
      </trkpt>
      <trkpt lat="48.68723" lon="2.0842">
        <ele>168</ele>
        <time>2015-01-23T13:16:36Z</time>
      </trkpt>
      <trkpt lat="48.68718" lon="2.0842">
        <ele>168</ele>
        <time>2015-01-23T13:16:40Z</time>
      </trkpt>
      <trkpt lat="48.68714" lon="2.08417">
        <ele>168</ele>
        <time>2015-01-23T13:16:45Z</time>
      </trkpt>
      <trkpt lat="48.68672" lon="2.08411">
        <ele>168</ele>
        <time>2015-01-23T13:17:16Z</time>
      </trkpt>
      <trkpt lat="48.68668" lon="2.08407">
        <ele>168</ele>
        <time>2015-01-23T13:17:21Z</time>
      </trkpt>
      <trkpt lat="48.68629" lon="2.084">
        <ele>168</ele>
        <time>2015-01-23T13:17:53Z</time>
      </trkpt>
      <trkpt lat="48.68614" lon="2.08396">
        <ele>168</ele>
        <time>2015-01-23T13:18:06Z</time>
      </trkpt>
      <trkpt lat="48.68578" lon="2.08383">
        <ele>168</ele>
        <time>2015-01-23T13:18:36Z</time>
      </trkpt>
      <trkpt lat="48.68575" lon="2.08378">
        <ele>168</ele>
        <time>2015-01-23T13:18:40Z</time>
      </trkpt>
      <trkpt lat="48.68561" lon="2.08375">
        <ele>168</ele>
        <time>2015-01-23T13:18:52Z</time>
      </trkpt>
      <trkpt lat="48.68551" lon="2.08377">
        <ele>168</ele>
        <time>2015-01-23T13:18:58Z</time>
      </trkpt>
      <trkpt lat="48.68526" lon="2.08373">
        <ele>168</ele>
        <time>2015-01-23T13:19:22Z</time>
      </trkpt>
      <trkpt lat="48.68523" lon="2.08367">
        <ele>168</ele>
        <time>2015-01-23T13:19:29Z</time>
      </trkpt>
      <trkpt lat="48.68499" lon="2.08357">
        <ele>167</ele>
        <time>2015-01-23T13:19:48Z</time>
      </trkpt>
      <trkpt lat="48.68462" lon="2.08346">
        <ele>166</ele>
        <time>2015-01-23T13:20:19Z</time>
      </trkpt>
      <trkpt lat="48.68449" lon="2.08342">
        <ele>166</ele>
        <time>2015-01-23T13:20:29Z</time>
      </trkpt>
      <trkpt lat="48.68446" lon="2.08336">
        <ele>166</ele>
        <time>2015-01-23T13:20:37Z</time>
      </trkpt>
      <trkpt lat="48.68413" lon="2.08318">
        <ele>165</ele>
        <time>2015-01-23T13:21:10Z</time>
      </trkpt>
      <trkpt lat="48.68404" lon="2.08317">
        <ele>165</ele>
        <time>2015-01-23T13:21:15Z</time>
      </trkpt>
      <trkpt lat="48.68402" lon="2.0831">
        <ele>165</ele>
        <time>2015-01-23T13:21:21Z</time>
      </trkpt>
      <trkpt lat="48.6839" lon="2.08292">
        <ele>164</ele>
        <time>2015-01-23T13:21:35Z</time>
      </trkpt>
      <trkpt lat="48.68386" lon="2.08287">
        <ele>164</ele>
        <time>2015-01-23T13:21:40Z</time>
      </trkpt>
      <trkpt lat="48.68365" lon="2.08252">
        <ele>163</ele>
        <time>2015-01-23T13:22:12Z</time>
      </trkpt>
      <trkpt lat="48.6834" lon="2.08214">
        <ele>162</ele>
        <time>2015-01-23T13:22:45Z</time>
      </trkpt>
      <trkpt lat="48.68316" lon="2.08167">
        <ele>161</ele>
        <time>2015-01-23T13:23:17Z</time>
      </trkpt>
      <trkpt lat="48.68307" lon="2.08156">
        <ele>160</ele>
        <time>2015-01-23T13:23:24Z</time>
      </trkpt>
      <trkpt lat="48.68296" lon="2.08116">
        <ele>159</ele>
        <time>2015-01-23T13:23:50Z</time>
      </trkpt>
      <trkpt lat="48.68282" lon="2.08055">
        <ele>158</ele>
        <time>2015-01-23T13:24:23Z</time>
      </trkpt>
      <trkpt lat="48.68279" lon="2.08049">
        <ele>158</ele>
        <time>2015-01-23T13:24:26Z</time>
      </trkpt>
      <trkpt lat="48.68278" lon="2.07993">
        <ele>156</ele>
        <time>2015-01-23T13:24:57Z</time>
      </trkpt>
      <trkpt lat="48.68263" lon="2.07946">
        <ele>155</ele>
        <time>2015-01-23T13:25:29Z</time>
      </trkpt>
      <trkpt lat="48.68258" lon="2.07894">
        <ele>154</ele>
        <time>2015-01-23T13:26:01Z</time>
      </trkpt>
      <trkpt lat="48.68254" lon="2.07857">
        <ele>153</ele>
        <time>2015-01-23T13:26:33Z</time>
      </trkpt>
      <trkpt lat="48.68254" lon="2.07851">
        <ele>153</ele>
        <time>2015-01-23T13:26:42Z</time>
      </trkpt>
      <trkpt lat="48.68255" lon="2.07848">
        <ele>153</ele>
        <time>2015-01-23T13:26:48Z</time>
      </trkpt>
      <trkpt lat="48.68173" lon="2.07668">
        <ele>151</ele>
        <time>2015-01-23T13:29:01Z</time>
      </trkpt>
      <trkpt lat="48.68168" lon="2.07655">
        <ele>151</ele>
        <time>2015-01-23T13:29:10Z</time>
      </trkpt>
      <trkpt lat="48.68168" lon="2.07644">
        <ele>151</ele>
        <time>2015-01-23T13:29:22Z</time>
      </trkpt>
      <trkpt lat="48.68157" lon="2.07621">
        <ele>150</ele>
        <time>2015-01-23T13:29:57Z</time>
      </trkpt>
      <trkpt lat="48.68142" lon="2.07574">
        <ele>150</ele>
        <time>2015-01-23T13:30:27Z</time>
      </trkpt>
      <trkpt lat="48.68136" lon="2.0756">
        <ele>150</ele>
        <time>2015-01-23T13:30:37Z</time>
      </trkpt>
      <trkpt lat="48.68137" lon="2.07553">
        <ele>150</ele>
        <time>2015-01-23T13:30:42Z</time>
      </trkpt>
      <trkpt lat="48.68134" lon="2.07547">
        <ele>150</ele>
        <time>2015-01-23T13:30:46Z</time>
      </trkpt>
      <trkpt lat="48.68117" lon="2.07521">
        <ele>149</ele>
        <time>2015-01-23T13:31:08Z</time>
      </trkpt>
      <trkpt lat="48.68104" lon="2.07517">
        <ele>149</ele>
        <time>2015-01-23T13:31:17Z</time>
      </trkpt>
      <trkpt lat="48.68099" lon="2.07514">
        <ele>150</ele>
        <time>2015-01-23T13:31:21Z</time>
      </trkpt>
      <trkpt lat="48.68092" lon="2.07512">
        <ele>150</ele>
        <time>2015-01-23T13:31:25Z</time>
      </trkpt>
      <trkpt lat="48.68078" lon="2.07501">
        <ele>151</ele>
        <time>2015-01-23T13:31:40Z</time>
      </trkpt>
      <trkpt lat="48.68073" lon="2.07496">
        <ele>151</ele>
        <time>2015-01-23T13:31:47Z</time>
      </trkpt>
      <trkpt lat="48.68037" lon="2.07469">
        <ele>151</ele>
        <time>2015-01-23T13:32:19Z</time>
      </trkpt>
      <trkpt lat="48.68001" lon="2.07442">
        <ele>153</ele>
        <time>2015-01-23T13:32:55Z</time>
      </trkpt>
      <trkpt lat="48.67975" lon="2.07428">
        <ele>153</ele>
        <time>2015-01-23T13:33:12Z</time>
      </trkpt>
      <trkpt lat="48.67972" lon="2.07421">
        <ele>153</ele>
        <time>2015-01-23T13:33:20Z</time>
      </trkpt>
      <trkpt lat="48.6797" lon="2.07408">
        <ele>153</ele>
        <time>2015-01-23T13:33:32Z</time>
      </trkpt>
      <trkpt lat="48.67975" lon="2.07374">
        <ele>153</ele>
        <time>2015-01-23T13:34:05Z</time>
      </trkpt>
      <trkpt lat="48.67977" lon="2.07367">
        <ele>153</ele>
        <time>2015-01-23T13:34:10Z</time>
      </trkpt>
      <trkpt lat="48.67981" lon="2.07361">
        <ele>153</ele>
        <time>2015-01-23T13:34:16Z</time>
      </trkpt>
      <trkpt lat="48.67986" lon="2.07334">
        <ele>153</ele>
        <time>2015-01-23T13:34:31Z</time>
      </trkpt>
      <trkpt lat="48.6799" lon="2.07331">
        <ele>153</ele>
        <time>2015-01-23T13:34:37Z</time>
      </trkpt>
      <trkpt lat="48.67994" lon="2.07318">
        <ele>153</ele>
        <time>2015-01-23T13:34:42Z</time>
      </trkpt>
      <trkpt lat="48.67999" lon="2.07296">
        <ele>153</ele>
        <time>2015-01-23T13:34:56Z</time>
      </trkpt>
      <trkpt lat="48.68003" lon="2.07284">
        <ele>152</ele>
        <time>2015-01-23T13:35:07Z</time>
      </trkpt>
      <trkpt lat="48.68002" lon="2.07276">
        <ele>150</ele>
        <time>2015-01-23T13:35:10Z</time>
      </trkpt>
      <trkpt lat="48.68004" lon="2.07261">
        <ele>149</ele>
        <time>2015-01-23T13:35:17Z</time>
      </trkpt>
      <trkpt lat="48.68011" lon="2.07225">
        <ele>149</ele>
        <time>2015-01-23T13:35:39Z</time>
      </trkpt>
      <trkpt lat="48.6801" lon="2.07211">
        <ele>149</ele>
        <time>2015-01-23T13:35:50Z</time>
      </trkpt>
      <trkpt lat="48.68002" lon="2.07192">
        <ele>149</ele>
        <time>2015-01-23T13:36:06Z</time>
      </trkpt>
      <trkpt lat="48.68005" lon="2.07187">
        <ele>149</ele>
        <time>2015-01-23T13:36:14Z</time>
      </trkpt>
      <trkpt lat="48.68001" lon="2.07182">
        <ele>150</ele>
        <time>2015-01-23T13:36:21Z</time>
      </trkpt>
      <trkpt lat="48.67993" lon="2.07183">
        <ele>150</ele>
        <time>2015-01-23T13:36:49Z</time>
      </trkpt>
      <trkpt lat="48.67988" lon="2.07184">
        <ele>150</ele>
        <time>2015-01-23T13:36:54Z</time>
      </trkpt>
      <trkpt lat="48.67981" lon="2.07184">
        <ele>150</ele>
        <time>2015-01-23T13:37:03Z</time>
      </trkpt>
      <trkpt lat="48.67977" lon="2.07186">
        <ele>151</ele>
        <time>2015-01-23T13:37:07Z</time>
      </trkpt>
      <trkpt lat="48.67959" lon="2.07201">
        <ele>151</ele>
        <time>2015-01-23T13:37:24Z</time>
      </trkpt>
      <trkpt lat="48.67939" lon="2.07198">
        <ele>152</ele>
        <time>2015-01-23T13:37:45Z</time>
      </trkpt>
      <trkpt lat="48.67935" lon="2.07196">
        <ele>152</ele>
        <time>2015-01-23T13:37:48Z</time>
      </trkpt>
      <trkpt lat="48.67933" lon="2.07189">
        <ele>152</ele>
        <time>2015-01-23T13:37:52Z</time>
      </trkpt>
      <trkpt lat="48.67928" lon="2.07186">
        <ele>152</ele>
        <time>2015-01-23T13:37:56Z</time>
      </trkpt>
      <trkpt lat="48.67889" lon="2.07174">
        <ele>153</ele>
        <time>2015-01-23T13:38:29Z</time>
      </trkpt>
      <trkpt lat="48.67857" lon="2.07174">
        <ele>153</ele>
        <time>2015-01-23T13:38:53Z</time>
      </trkpt>
      <trkpt lat="48.67842" lon="2.07166">
        <ele>153</ele>
        <time>2015-01-23T13:39:06Z</time>
      </trkpt>
      <trkpt lat="48.67833" lon="2.07164">
        <ele>154</ele>
        <time>2015-01-23T13:39:14Z</time>
      </trkpt>
      <trkpt lat="48.67812" lon="2.07157">
        <ele>153</ele>
        <time>2015-01-23T13:39:33Z</time>
      </trkpt>
      <trkpt lat="48.6781" lon="2.07159">
        <ele>153</ele>
        <time>2015-01-23T13:39:55Z</time>
      </trkpt>
      <trkpt lat="48.67806" lon="2.07158">
        <ele>153</ele>
        <time>2015-01-23T13:41:24Z</time>
      </trkpt>
      <trkpt lat="48.67804" lon="2.07152">
        <ele>153</ele>
        <time>2015-01-23T13:41:43Z</time>
      </trkpt>
      <trkpt lat="48.67799" lon="2.07151">
        <ele>153</ele>
        <time>2015-01-23T13:41:51Z</time>
      </trkpt>
      <trkpt lat="48.67791" lon="2.07149">
        <ele>153</ele>
        <time>2015-01-23T13:41:56Z</time>
      </trkpt>
      <trkpt lat="48.67762" lon="2.07119">
        <ele>152</ele>
        <time>2015-01-23T13:42:27Z</time>
      </trkpt>
      <trkpt lat="48.67742" lon="2.07095">
        <ele>152</ele>
        <time>2015-01-23T13:42:47Z</time>
      </trkpt>
      <trkpt lat="48.67741" lon="2.07087">
        <ele>152</ele>
        <time>2015-01-23T13:42:53Z</time>
      </trkpt>
      <trkpt lat="48.67733" lon="2.07078">
        <ele>152</ele>
        <time>2015-01-23T13:42:59Z</time>
      </trkpt>
      <trkpt lat="48.67722" lon="2.07062">
        <ele>153</ele>
        <time>2015-01-23T13:43:12Z</time>
      </trkpt>
      <trkpt lat="48.6769" lon="2.0702">
        <ele>153</ele>
        <time>2015-01-23T13:43:42Z</time>
      </trkpt>
      <trkpt lat="48.67685" lon="2.07018">
        <ele>153</ele>
        <time>2015-01-23T13:43:45Z</time>
      </trkpt>
      <trkpt lat="48.67657" lon="2.06998">
        <ele>156</ele>
        <time>2015-01-23T13:44:16Z</time>
      </trkpt>
      <trkpt lat="48.67623" lon="2.06984">
        <ele>158</ele>
        <time>2015-01-23T13:44:46Z</time>
      </trkpt>
      <trkpt lat="48.67585" lon="2.06954">
        <ele>159</ele>
        <time>2015-01-23T13:45:19Z</time>
      </trkpt>
      <trkpt lat="48.6758" lon="2.06958">
        <ele>160</ele>
        <time>2015-01-23T13:45:26Z</time>
      </trkpt>
      <trkpt lat="48.67579" lon="2.06962">
        <ele>160</ele>
        <time>2015-01-23T13:45:38Z</time>
      </trkpt>
      <trkpt lat="48.67578" lon="2.06969">
        <ele>160</ele>
        <time>2015-01-23T13:45:44Z</time>
      </trkpt>
      <trkpt lat="48.67573" lon="2.06972">
        <ele>160</ele>
        <time>2015-01-23T13:45:50Z</time>
      </trkpt>
      <trkpt lat="48.67551" lon="2.07015">
        <ele>161</ele>
        <time>2015-01-23T13:46:23Z</time>
      </trkpt>
      <trkpt lat="48.67544" lon="2.0703">
        <ele>161</ele>
        <time>2015-01-23T13:46:31Z</time>
      </trkpt>
      <trkpt lat="48.67541" lon="2.07037">
        <ele>161</ele>
        <time>2015-01-23T13:46:36Z</time>
      </trkpt>
      <trkpt lat="48.67533" lon="2.07047">
        <ele>161</ele>
        <time>2015-01-23T13:46:46Z</time>
      </trkpt>
      <trkpt lat="48.67529" lon="2.07048">
        <ele>161</ele>
        <time>2015-01-23T13:46:53Z</time>
      </trkpt>
      <trkpt lat="48.67517" lon="2.07041">
        <ele>161</ele>
        <time>2015-01-23T13:47:02Z</time>
      </trkpt>
      <trkpt lat="48.67485" lon="2.07002">
        <ele>162</ele>
        <time>2015-01-23T13:47:36Z</time>
      </trkpt>
      <trkpt lat="48.67447" lon="2.06972">
        <ele>163</ele>
        <time>2015-01-23T13:48:08Z</time>
      </trkpt>
      <trkpt lat="48.67401" lon="2.06957">
        <ele>165</ele>
        <time>2015-01-23T13:48:42Z</time>
      </trkpt>
      <trkpt lat="48.67387" lon="2.06948">
        <ele>165</ele>
        <time>2015-01-23T13:48:55Z</time>
      </trkpt>
      <trkpt lat="48.67383" lon="2.06942">
        <ele>165</ele>
        <time>2015-01-23T13:48:59Z</time>
      </trkpt>
      <trkpt lat="48.67348" lon="2.06915">
        <ele>166</ele>
        <time>2015-01-23T13:49:31Z</time>
      </trkpt>
      <trkpt lat="48.67314" lon="2.06882">
        <ele>166</ele>
        <time>2015-01-23T13:50:02Z</time>
      </trkpt>
      <trkpt lat="48.6731" lon="2.06877">
        <ele>166</ele>
        <time>2015-01-23T13:50:07Z</time>
      </trkpt>
      <trkpt lat="48.67301" lon="2.06864">
        <ele>166</ele>
        <time>2015-01-23T13:50:14Z</time>
      </trkpt>
      <trkpt lat="48.67293" lon="2.06856">
        <ele>166</ele>
        <time>2015-01-23T13:50:21Z</time>
      </trkpt>
      <trkpt lat="48.67281" lon="2.06823">
        <ele>166</ele>
        <time>2015-01-23T13:50:38Z</time>
      </trkpt>
      <trkpt lat="48.67284" lon="2.06817">
        <ele>166</ele>
        <time>2015-01-23T13:50:42Z</time>
      </trkpt>
      <trkpt lat="48.67287" lon="2.06821">
        <ele>166</ele>
        <time>2015-01-23T13:51:38Z</time>
      </trkpt>
      <trkpt lat="48.67292" lon="2.06818">
        <ele>166</ele>
        <time>2015-01-23T13:52:13Z</time>
      </trkpt>
      <trkpt lat="48.67299" lon="2.0681">
        <ele>166</ele>
        <time>2015-01-23T13:52:28Z</time>
      </trkpt>
      <trkpt lat="48.67298" lon="2.06816">
        <ele>166</ele>
        <time>2015-01-23T13:52:34Z</time>
      </trkpt>
      <trkpt lat="48.67293" lon="2.06827">
        <ele>166</ele>
        <time>2015-01-23T13:53:05Z</time>
      </trkpt>
      <trkpt lat="48.67295" lon="2.06823">
        <ele>166</ele>
        <time>2015-01-23T13:56:42Z</time>
      </trkpt>
      <trkpt lat="48.67298" lon="2.06817">
        <ele>166</ele>
        <time>2015-01-23T13:56:46Z</time>
      </trkpt>
      <trkpt lat="48.67298" lon="2.06813">
        <ele>166</ele>
        <time>2015-01-23T13:56:53Z</time>
      </trkpt>
    </trkseg>
  </trk>
</gpx>